<?xml version="1.0" encoding="UTF-8" standalone="no" ?>
<gpx xmlns="http://www.topografix.com/GPX/1/1" xmlns:xsi="http://www.w3.org/2001/XMLSchema-instance" xsi:schemaLocation="http://www.topografix.com/GPX/1/1 http://www.topografix.com/GPX/1/1/gpx.xsd" version="1.1" creator="VisuGPX - https://www.visugpx.com">
  <metadata>
    <name>Massels 8.6 km</name>
  </metadata>
  <trk>
    <name><![CDATA[Massels au départ de Lacardayre 8.6 km]]></name>
    <extensions>
      <line xmlns="http://www.topografix.com/GPX/gpx_style/0/2">
        <color>0000FF</color>
        <width>4</width>
      </line>
    </extensions>
    <trkseg>
      <trkpt lat="44.3059" lon="0.8565">
        <ele>210.2</ele>
        <time>2020-10-17T18:33:40.000Z</time>
      </trkpt>
      <trkpt lat="44.306" lon="0.85652">
        <ele>210.6</ele>
        <time>2020-10-17T18:33:32.000Z</time>
      </trkpt>
      <trkpt lat="44.30605" lon="0.85663">
        <ele>210.8</ele>
        <time>2020-10-17T18:33:24.000Z</time>
      </trkpt>
      <trkpt lat="44.30609" lon="0.85676">
        <ele>211.2</ele>
        <time>2020-10-17T18:33:15.000Z</time>
      </trkpt>
      <trkpt lat="44.30611" lon="0.85685">
        <ele>211.6</ele>
        <time>2020-10-17T18:33:07.000Z</time>
      </trkpt>
      <trkpt lat="44.30615" lon="0.85697">
        <ele>212.1</ele>
        <time>2020-10-17T18:32:58.000Z</time>
      </trkpt>
      <trkpt lat="44.30616" lon="0.85699">
        <ele>212.2</ele>
        <time>2020-10-17T18:32:50.000Z</time>
      </trkpt>
      <trkpt lat="44.30618" lon="0.85709">
        <ele>212.3</ele>
        <time>2020-10-17T18:32:42.000Z</time>
      </trkpt>
      <trkpt lat="44.30623" lon="0.85722">
        <ele>212.4</ele>
        <time>2020-10-17T18:32:33.000Z</time>
      </trkpt>
      <trkpt lat="44.30627" lon="0.85733">
        <ele>212.6</ele>
        <time>2020-10-17T18:32:25.000Z</time>
      </trkpt>
      <trkpt lat="44.30631" lon="0.85747">
        <ele>212.7</ele>
        <time>2020-10-17T18:32:16.000Z</time>
      </trkpt>
      <trkpt lat="44.30634" lon="0.85761">
        <ele>212.8</ele>
        <time>2020-10-17T18:32:08.000Z</time>
      </trkpt>
      <trkpt lat="44.30638" lon="0.85775">
        <ele>213</ele>
        <time>2020-10-17T18:31:59.000Z</time>
      </trkpt>
      <trkpt lat="44.30646" lon="0.85779">
        <ele>212.7</ele>
        <time>2020-10-17T18:31:51.000Z</time>
      </trkpt>
      <trkpt lat="44.30652" lon="0.85787">
        <ele>212.5</ele>
        <time>2020-10-17T18:31:43.000Z</time>
      </trkpt>
      <trkpt lat="44.30662" lon="0.85794">
        <ele>212.2</ele>
        <time>2020-10-17T18:31:34.000Z</time>
      </trkpt>
      <trkpt lat="44.30671" lon="0.85799">
        <ele>211.7</ele>
        <time>2020-10-17T18:31:26.000Z</time>
      </trkpt>
      <trkpt lat="44.30693" lon="0.85809">
        <ele>210.2</ele>
        <time>2020-10-17T18:31:09.000Z</time>
      </trkpt>
      <trkpt lat="44.30702" lon="0.85814">
        <ele>209.8</ele>
        <time>2020-10-17T18:31:01.000Z</time>
      </trkpt>
      <trkpt lat="44.30713" lon="0.85821">
        <ele>209.6</ele>
        <time>2020-10-17T18:30:52.000Z</time>
      </trkpt>
      <trkpt lat="44.30722" lon="0.85827">
        <ele>209.5</ele>
        <time>2020-10-17T18:30:44.000Z</time>
      </trkpt>
      <trkpt lat="44.30733" lon="0.85831">
        <ele>209.1</ele>
        <time>2020-10-17T18:30:35.000Z</time>
      </trkpt>
      <trkpt lat="44.30743" lon="0.85824">
        <ele>208.4</ele>
        <time>2020-10-17T18:30:27.000Z</time>
      </trkpt>
      <trkpt lat="44.30751" lon="0.85815">
        <ele>208</ele>
        <time>2020-10-17T18:30:19.000Z</time>
      </trkpt>
      <trkpt lat="44.3076" lon="0.85804">
        <ele>207.6</ele>
        <time>2020-10-17T18:30:10.000Z</time>
      </trkpt>
      <trkpt lat="44.30766" lon="0.85797">
        <ele>207.3</ele>
        <time>2020-10-17T18:30:02.000Z</time>
      </trkpt>
      <trkpt lat="44.30775" lon="0.85786">
        <ele>207</ele>
        <time>2020-10-17T18:29:53.000Z</time>
      </trkpt>
      <trkpt lat="44.30783" lon="0.85776">
        <ele>206.6</ele>
        <time>2020-10-17T18:29:45.000Z</time>
      </trkpt>
      <trkpt lat="44.30793" lon="0.85765">
        <ele>205.7</ele>
        <time>2020-10-17T18:29:36.000Z</time>
      </trkpt>
      <trkpt lat="44.308" lon="0.85755">
        <ele>205.2</ele>
        <time>2020-10-17T18:29:28.000Z</time>
      </trkpt>
      <trkpt lat="44.30803" lon="0.8575">
        <ele>205.1</ele>
        <time>2020-10-17T18:29:20.000Z</time>
      </trkpt>
      <trkpt lat="44.30805" lon="0.85738">
        <ele>205</ele>
        <time>2020-10-17T18:29:11.000Z</time>
      </trkpt>
      <trkpt lat="44.30805" lon="0.85724">
        <ele>205</ele>
        <time>2020-10-17T18:29:03.000Z</time>
      </trkpt>
      <trkpt lat="44.30803" lon="0.85713">
        <ele>204.7</ele>
        <time>2020-10-17T18:28:54.000Z</time>
      </trkpt>
      <trkpt lat="44.308" lon="0.85699">
        <ele>204.4</ele>
        <time>2020-10-17T18:28:38.000Z</time>
      </trkpt>
      <trkpt lat="44.30795" lon="0.85685">
        <ele>204</ele>
        <time>2020-10-17T18:28:29.000Z</time>
      </trkpt>
      <trkpt lat="44.3079" lon="0.85673">
        <ele>203.8</ele>
        <time>2020-10-17T18:28:21.000Z</time>
      </trkpt>
      <trkpt lat="44.30786" lon="0.85659">
        <ele>203.4</ele>
        <time>2020-10-17T18:28:12.000Z</time>
      </trkpt>
      <trkpt lat="44.30782" lon="0.85647">
        <ele>203</ele>
        <time>2020-10-17T18:28:04.000Z</time>
      </trkpt>
      <trkpt lat="44.30776" lon="0.85635">
        <ele>203</ele>
        <time>2020-10-17T18:27:56.000Z</time>
      </trkpt>
      <trkpt lat="44.30773" lon="0.85622">
        <ele>202.8</ele>
        <time>2020-10-17T18:27:47.000Z</time>
      </trkpt>
      <trkpt lat="44.30771" lon="0.85611">
        <ele>202.7</ele>
        <time>2020-10-17T18:27:39.000Z</time>
      </trkpt>
      <trkpt lat="44.30768" lon="0.85596">
        <ele>203.6</ele>
        <time>2020-10-17T18:27:30.000Z</time>
      </trkpt>
      <trkpt lat="44.30764" lon="0.85583">
        <ele>204.5</ele>
        <time>2020-10-17T18:27:22.000Z</time>
      </trkpt>
      <trkpt lat="44.3076" lon="0.85572">
        <ele>205.4</ele>
        <time>2020-10-17T18:27:14.000Z</time>
      </trkpt>
      <trkpt lat="44.30753" lon="0.8556">
        <ele>206.5</ele>
        <time>2020-10-17T18:27:05.000Z</time>
      </trkpt>
      <trkpt lat="44.30746" lon="0.8555">
        <ele>207.4</ele>
        <time>2020-10-17T18:26:57.000Z</time>
      </trkpt>
      <trkpt lat="44.30739" lon="0.85538">
        <ele>207.9</ele>
        <time>2020-10-17T18:26:48.000Z</time>
      </trkpt>
      <trkpt lat="44.30734" lon="0.85529">
        <ele>208.2</ele>
        <time>2020-10-17T18:26:40.000Z</time>
      </trkpt>
      <trkpt lat="44.30731" lon="0.85523">
        <ele>208.4</ele>
        <time>2020-10-17T18:26:31.000Z</time>
      </trkpt>
      <trkpt lat="44.30727" lon="0.85515">
        <ele>208.6</ele>
        <time>2020-10-17T18:26:23.000Z</time>
      </trkpt>
      <trkpt lat="44.30716" lon="0.85492">
        <ele>209.4</ele>
        <time>2020-10-17T18:26:06.000Z</time>
      </trkpt>
      <trkpt lat="44.30711" lon="0.85481">
        <ele>209.5</ele>
        <time>2020-10-17T18:25:58.000Z</time>
      </trkpt>
      <trkpt lat="44.30707" lon="0.8547">
        <ele>209.5</ele>
        <time>2020-10-17T18:25:49.000Z</time>
      </trkpt>
      <trkpt lat="44.30703" lon="0.85457">
        <ele>209.3</ele>
        <time>2020-10-17T18:25:41.000Z</time>
      </trkpt>
      <trkpt lat="44.307" lon="0.85447">
        <ele>209.1</ele>
        <time>2020-10-17T18:25:33.000Z</time>
      </trkpt>
      <trkpt lat="44.30696" lon="0.85435">
        <ele>208.6</ele>
        <time>2020-10-17T18:25:24.000Z</time>
      </trkpt>
      <trkpt lat="44.3069" lon="0.85424">
        <ele>208.1</ele>
        <time>2020-10-17T18:25:16.000Z</time>
      </trkpt>
      <trkpt lat="44.30685" lon="0.85414">
        <ele>207.5</ele>
        <time>2020-10-17T18:25:07.000Z</time>
      </trkpt>
      <trkpt lat="44.3068" lon="0.85406">
        <ele>206.7</ele>
        <time>2020-10-17T18:24:59.000Z</time>
      </trkpt>
      <trkpt lat="44.30675" lon="0.85396">
        <ele>206.1</ele>
        <time>2020-10-17T18:24:51.000Z</time>
      </trkpt>
      <trkpt lat="44.30672" lon="0.85386">
        <ele>205.4</ele>
        <time>2020-10-17T18:24:42.000Z</time>
      </trkpt>
      <trkpt lat="44.3067" lon="0.85378">
        <ele>204.3</ele>
        <time>2020-10-17T18:24:34.000Z</time>
      </trkpt>
      <trkpt lat="44.30668" lon="0.85371">
        <ele>203.4</ele>
        <time>2020-10-17T18:24:25.000Z</time>
      </trkpt>
      <trkpt lat="44.30663" lon="0.85363">
        <ele>202.2</ele>
        <time>2020-10-17T18:24:17.000Z</time>
      </trkpt>
      <trkpt lat="44.30655" lon="0.85357">
        <ele>201</ele>
        <time>2020-10-17T18:24:09.000Z</time>
      </trkpt>
      <trkpt lat="44.30648" lon="0.85354">
        <ele>200.2</ele>
        <time>2020-10-17T18:24:00.000Z</time>
      </trkpt>
      <trkpt lat="44.30641" lon="0.85351">
        <ele>199.5</ele>
        <time>2020-10-17T18:23:52.000Z</time>
      </trkpt>
      <trkpt lat="44.30625" lon="0.85345">
        <ele>198.5</ele>
        <time>2020-10-17T18:23:35.000Z</time>
      </trkpt>
      <trkpt lat="44.30616" lon="0.8534">
        <ele>198.2</ele>
        <time>2020-10-17T18:23:26.000Z</time>
      </trkpt>
      <trkpt lat="44.30609" lon="0.85333">
        <ele>198.2</ele>
        <time>2020-10-17T18:23:18.000Z</time>
      </trkpt>
      <trkpt lat="44.30604" lon="0.85325">
        <ele>196.8</ele>
        <time>2020-10-17T18:23:10.000Z</time>
      </trkpt>
      <trkpt lat="44.306" lon="0.85315">
        <ele>195.6</ele>
        <time>2020-10-17T18:23:01.000Z</time>
      </trkpt>
      <trkpt lat="44.30595" lon="0.85306">
        <ele>195.1</ele>
        <time>2020-10-17T18:22:53.000Z</time>
      </trkpt>
      <trkpt lat="44.30591" lon="0.85293">
        <ele>195.1</ele>
        <time>2020-10-17T18:22:44.000Z</time>
      </trkpt>
      <trkpt lat="44.3059" lon="0.85282">
        <ele>194.3</ele>
        <time>2020-10-17T18:22:36.000Z</time>
      </trkpt>
      <trkpt lat="44.30588" lon="0.8527">
        <ele>194.4</ele>
        <time>2020-10-17T18:22:28.000Z</time>
      </trkpt>
      <trkpt lat="44.30587" lon="0.85255">
        <ele>194.1</ele>
        <time>2020-10-17T18:22:19.000Z</time>
      </trkpt>
      <trkpt lat="44.30585" lon="0.85243">
        <ele>194.8</ele>
        <time>2020-10-17T18:22:11.000Z</time>
      </trkpt>
      <trkpt lat="44.30584" lon="0.8523">
        <ele>196.1</ele>
        <time>2020-10-17T18:22:02.000Z</time>
      </trkpt>
      <trkpt lat="44.30583" lon="0.85222">
        <ele>197.1</ele>
        <time>2020-10-17T18:21:54.000Z</time>
      </trkpt>
      <trkpt lat="44.30583" lon="0.85212">
        <ele>198.2</ele>
        <time>2020-10-17T18:21:46.000Z</time>
      </trkpt>
      <trkpt lat="44.30586" lon="0.85198">
        <ele>198.6</ele>
        <time>2020-10-17T18:21:37.000Z</time>
      </trkpt>
      <trkpt lat="44.3059" lon="0.85185">
        <ele>198.6</ele>
        <time>2020-10-17T18:21:29.000Z</time>
      </trkpt>
      <trkpt lat="44.30598" lon="0.8517">
        <ele>198</ele>
        <time>2020-10-17T18:21:20.000Z</time>
      </trkpt>
      <trkpt lat="44.30608" lon="0.85147">
        <ele>198.4</ele>
        <time>2020-10-17T18:21:03.000Z</time>
      </trkpt>
      <trkpt lat="44.30612" lon="0.85138">
        <ele>198.8</ele>
        <time>2020-10-17T18:20:55.000Z</time>
      </trkpt>
      <trkpt lat="44.30615" lon="0.85128">
        <ele>198</ele>
        <time>2020-10-17T18:20:47.000Z</time>
      </trkpt>
      <trkpt lat="44.3062" lon="0.85117">
        <ele>197.4</ele>
        <time>2020-10-17T18:20:38.000Z</time>
      </trkpt>
      <trkpt lat="44.30622" lon="0.85106">
        <ele>197.1</ele>
        <time>2020-10-17T18:20:30.000Z</time>
      </trkpt>
      <trkpt lat="44.30626" lon="0.85094">
        <ele>196.1</ele>
        <time>2020-10-17T18:20:21.000Z</time>
      </trkpt>
      <trkpt lat="44.30628" lon="0.85084">
        <ele>195.5</ele>
        <time>2020-10-17T18:20:13.000Z</time>
      </trkpt>
      <trkpt lat="44.30629" lon="0.85072">
        <ele>195.4</ele>
        <time>2020-10-17T18:20:05.000Z</time>
      </trkpt>
      <trkpt lat="44.30629" lon="0.85059">
        <ele>195.6</ele>
        <time>2020-10-17T18:19:56.000Z</time>
      </trkpt>
      <trkpt lat="44.30628" lon="0.85048">
        <ele>196.3</ele>
        <time>2020-10-17T18:19:48.000Z</time>
      </trkpt>
      <trkpt lat="44.30626" lon="0.85039">
        <ele>197.2</ele>
        <time>2020-10-17T18:19:39.000Z</time>
      </trkpt>
      <trkpt lat="44.30626" lon="0.85031">
        <ele>197.6</ele>
        <time>2020-10-17T18:19:31.000Z</time>
      </trkpt>
      <trkpt lat="44.30628" lon="0.85018">
        <ele>198.7</ele>
        <time>2020-10-17T18:19:23.000Z</time>
      </trkpt>
      <trkpt lat="44.3063" lon="0.85008">
        <ele>199.7</ele>
        <time>2020-10-17T18:19:14.000Z</time>
      </trkpt>
      <trkpt lat="44.30631" lon="0.85">
        <ele>200.5</ele>
        <time>2020-10-17T18:19:06.000Z</time>
      </trkpt>
      <trkpt lat="44.30631" lon="0.84997">
        <ele>200.7</ele>
        <time>2020-10-17T18:18:57.000Z</time>
      </trkpt>
      <trkpt lat="44.30637" lon="0.84993">
        <ele>200.6</ele>
        <time>2020-10-17T18:18:49.000Z</time>
      </trkpt>
      <trkpt lat="44.30653" lon="0.8498">
        <ele>198.9</ele>
        <time>2020-10-17T18:18:32.000Z</time>
      </trkpt>
      <trkpt lat="44.30663" lon="0.84977">
        <ele>197.6</ele>
        <time>2020-10-17T18:18:24.000Z</time>
      </trkpt>
      <trkpt lat="44.30674" lon="0.84974">
        <ele>196.8</ele>
        <time>2020-10-17T18:18:15.000Z</time>
      </trkpt>
      <trkpt lat="44.30683" lon="0.84969">
        <ele>196.8</ele>
        <time>2020-10-17T18:18:07.000Z</time>
      </trkpt>
      <trkpt lat="44.30701" lon="0.8496">
        <ele>197.1</ele>
        <time>2020-10-17T18:17:50.000Z</time>
      </trkpt>
      <trkpt lat="44.3071" lon="0.84954">
        <ele>197.7</ele>
        <time>2020-10-17T18:17:42.000Z</time>
      </trkpt>
      <trkpt lat="44.30722" lon="0.84946">
        <ele>198.5</ele>
        <time>2020-10-17T18:17:33.000Z</time>
      </trkpt>
      <trkpt lat="44.30733" lon="0.84942">
        <ele>198.6</ele>
        <time>2020-10-17T18:17:25.000Z</time>
      </trkpt>
      <trkpt lat="44.30742" lon="0.84936">
        <ele>199.1</ele>
        <time>2020-10-17T18:17:16.000Z</time>
      </trkpt>
      <trkpt lat="44.30753" lon="0.84934">
        <ele>199.1</ele>
        <time>2020-10-17T18:17:08.000Z</time>
      </trkpt>
      <trkpt lat="44.30764" lon="0.84934">
        <ele>198.2</ele>
        <time>2020-10-17T18:17:00.000Z</time>
      </trkpt>
      <trkpt lat="44.30775" lon="0.84936">
        <ele>197.1</ele>
        <time>2020-10-17T18:16:51.000Z</time>
      </trkpt>
      <trkpt lat="44.30785" lon="0.84935">
        <ele>196.9</ele>
        <time>2020-10-17T18:16:43.000Z</time>
      </trkpt>
      <trkpt lat="44.30795" lon="0.84936">
        <ele>196.4</ele>
        <time>2020-10-17T18:16:34.000Z</time>
      </trkpt>
      <trkpt lat="44.30805" lon="0.84936">
        <ele>196.1</ele>
        <time>2020-10-17T18:16:26.000Z</time>
      </trkpt>
      <trkpt lat="44.30815" lon="0.84938">
        <ele>195.5</ele>
        <time>2020-10-17T18:16:18.000Z</time>
      </trkpt>
      <trkpt lat="44.30835" lon="0.84943">
        <ele>194.2</ele>
        <time>2020-10-17T18:16:01.000Z</time>
      </trkpt>
      <trkpt lat="44.30845" lon="0.84946">
        <ele>193.1</ele>
        <time>2020-10-17T18:15:52.000Z</time>
      </trkpt>
      <trkpt lat="44.30853" lon="0.84948">
        <ele>192.4</ele>
        <time>2020-10-17T18:15:44.000Z</time>
      </trkpt>
      <trkpt lat="44.30861" lon="0.84948">
        <ele>191.9</ele>
        <time>2020-10-17T18:15:35.000Z</time>
      </trkpt>
      <trkpt lat="44.30869" lon="0.84947">
        <ele>191.7</ele>
        <time>2020-10-17T18:15:27.000Z</time>
      </trkpt>
      <trkpt lat="44.30879" lon="0.84944">
        <ele>191.9</ele>
        <time>2020-10-17T18:15:19.000Z</time>
      </trkpt>
      <trkpt lat="44.30889" lon="0.84943">
        <ele>191.2</ele>
        <time>2020-10-17T18:15:10.000Z</time>
      </trkpt>
      <trkpt lat="44.30897" lon="0.84943">
        <ele>191.8</ele>
        <time>2020-10-17T18:15:02.000Z</time>
      </trkpt>
      <trkpt lat="44.30907" lon="0.84943">
        <ele>192.4</ele>
        <time>2020-10-17T18:14:53.000Z</time>
      </trkpt>
      <trkpt lat="44.30915" lon="0.84941">
        <ele>193.3</ele>
        <time>2020-10-17T18:14:45.000Z</time>
      </trkpt>
      <trkpt lat="44.30916" lon="0.84939">
        <ele>193.6</ele>
        <time>2020-10-17T18:14:37.000Z</time>
      </trkpt>
      <trkpt lat="44.30921" lon="0.84937">
        <ele>193.6</ele>
        <time>2020-10-17T18:14:28.000Z</time>
      </trkpt>
      <trkpt lat="44.30926" lon="0.84932">
        <ele>193.6</ele>
        <time>2020-10-17T18:14:20.000Z</time>
      </trkpt>
      <trkpt lat="44.30928" lon="0.84923">
        <ele>194</ele>
        <time>2020-10-17T18:14:11.000Z</time>
      </trkpt>
      <trkpt lat="44.30929" lon="0.84915">
        <ele>194.1</ele>
        <time>2020-10-17T18:14:03.000Z</time>
      </trkpt>
      <trkpt lat="44.30932" lon="0.84912">
        <ele>193.4</ele>
        <time>2020-10-17T18:13:46.000Z</time>
      </trkpt>
      <trkpt lat="44.30941" lon="0.84914">
        <ele>192.2</ele>
        <time>2020-10-17T18:13:29.000Z</time>
      </trkpt>
      <trkpt lat="44.30947" lon="0.84916">
        <ele>191.2</ele>
        <time>2020-10-17T18:13:21.000Z</time>
      </trkpt>
      <trkpt lat="44.30954" lon="0.84918">
        <ele>190.1</ele>
        <time>2020-10-17T18:13:13.000Z</time>
      </trkpt>
      <trkpt lat="44.30959" lon="0.84921">
        <ele>189.1</ele>
        <time>2020-10-17T18:13:04.000Z</time>
      </trkpt>
      <trkpt lat="44.30964" lon="0.84926">
        <ele>188.5</ele>
        <time>2020-10-17T18:12:56.000Z</time>
      </trkpt>
      <trkpt lat="44.3097" lon="0.84929">
        <ele>187.7</ele>
        <time>2020-10-17T18:12:47.000Z</time>
      </trkpt>
      <trkpt lat="44.30977" lon="0.84933">
        <ele>186.5</ele>
        <time>2020-10-17T18:12:39.000Z</time>
      </trkpt>
      <trkpt lat="44.30985" lon="0.84935">
        <ele>184.6</ele>
        <time>2020-10-17T18:12:30.000Z</time>
      </trkpt>
      <trkpt lat="44.30992" lon="0.84937">
        <ele>182.8</ele>
        <time>2020-10-17T18:12:22.000Z</time>
      </trkpt>
      <trkpt lat="44.30997" lon="0.8494">
        <ele>181.9</ele>
        <time>2020-10-17T18:12:14.000Z</time>
      </trkpt>
      <trkpt lat="44.31005" lon="0.84942">
        <ele>180.2</ele>
        <time>2020-10-17T18:12:05.000Z</time>
      </trkpt>
      <trkpt lat="44.31011" lon="0.84945">
        <ele>178.8</ele>
        <time>2020-10-17T18:11:57.000Z</time>
      </trkpt>
      <trkpt lat="44.31017" lon="0.8495">
        <ele>177.7</ele>
        <time>2020-10-17T18:11:48.000Z</time>
      </trkpt>
      <trkpt lat="44.31022" lon="0.84954">
        <ele>176.6</ele>
        <time>2020-10-17T18:11:40.000Z</time>
      </trkpt>
      <trkpt lat="44.31028" lon="0.84959">
        <ele>175.5</ele>
        <time>2020-10-17T18:11:32.000Z</time>
      </trkpt>
      <trkpt lat="44.31035" lon="0.84965">
        <ele>174.4</ele>
        <time>2020-10-17T18:11:23.000Z</time>
      </trkpt>
      <trkpt lat="44.31039" lon="0.84971">
        <ele>173.9</ele>
        <time>2020-10-17T18:11:15.000Z</time>
      </trkpt>
      <trkpt lat="44.31051" lon="0.84988">
        <ele>171.7</ele>
        <time>2020-10-17T18:10:58.000Z</time>
      </trkpt>
      <trkpt lat="44.31054" lon="0.84996">
        <ele>171.2</ele>
        <time>2020-10-17T18:10:50.000Z</time>
      </trkpt>
      <trkpt lat="44.31059" lon="0.85004">
        <ele>170.5</ele>
        <time>2020-10-17T18:10:41.000Z</time>
      </trkpt>
      <trkpt lat="44.31063" lon="0.85011">
        <ele>169.7</ele>
        <time>2020-10-17T18:10:33.000Z</time>
      </trkpt>
      <trkpt lat="44.31066" lon="0.85017">
        <ele>169.2</ele>
        <time>2020-10-17T18:10:24.000Z</time>
      </trkpt>
      <trkpt lat="44.31069" lon="0.85025">
        <ele>168.6</ele>
        <time>2020-10-17T18:10:16.000Z</time>
      </trkpt>
      <trkpt lat="44.31071" lon="0.85032">
        <ele>167.6</ele>
        <time>2020-10-17T18:10:08.000Z</time>
      </trkpt>
      <trkpt lat="44.31073" lon="0.8504">
        <ele>166.1</ele>
        <time>2020-10-17T18:09:59.000Z</time>
      </trkpt>
      <trkpt lat="44.31076" lon="0.85047">
        <ele>164.5</ele>
        <time>2020-10-17T18:09:51.000Z</time>
      </trkpt>
      <trkpt lat="44.31081" lon="0.85054">
        <ele>162.6</ele>
        <time>2020-10-17T18:09:42.000Z</time>
      </trkpt>
      <trkpt lat="44.31086" lon="0.8506">
        <ele>161</ele>
        <time>2020-10-17T18:09:34.000Z</time>
      </trkpt>
      <trkpt lat="44.31094" lon="0.85064">
        <ele>159.4</ele>
        <time>2020-10-17T18:09:25.000Z</time>
      </trkpt>
      <trkpt lat="44.31101" lon="0.85065">
        <ele>158.3</ele>
        <time>2020-10-17T18:09:17.000Z</time>
      </trkpt>
      <trkpt lat="44.31108" lon="0.85066">
        <ele>157.2</ele>
        <time>2020-10-17T18:09:09.000Z</time>
      </trkpt>
      <trkpt lat="44.31116" lon="0.85065">
        <ele>156.3</ele>
        <time>2020-10-17T18:09:00.000Z</time>
      </trkpt>
      <trkpt lat="44.31123" lon="0.85063">
        <ele>155.2</ele>
        <time>2020-10-17T18:08:52.000Z</time>
      </trkpt>
      <trkpt lat="44.31132" lon="0.85062">
        <ele>153.8</ele>
        <time>2020-10-17T18:08:43.000Z</time>
      </trkpt>
      <trkpt lat="44.31142" lon="0.85062">
        <ele>152</ele>
        <time>2020-10-17T18:08:27.000Z</time>
      </trkpt>
      <trkpt lat="44.3115" lon="0.85061">
        <ele>150.6</ele>
        <time>2020-10-17T18:08:18.000Z</time>
      </trkpt>
      <trkpt lat="44.31157" lon="0.8506">
        <ele>149.3</ele>
        <time>2020-10-17T18:08:10.000Z</time>
      </trkpt>
      <trkpt lat="44.31165" lon="0.85056">
        <ele>148.3</ele>
        <time>2020-10-17T18:08:01.000Z</time>
      </trkpt>
      <trkpt lat="44.31173" lon="0.85049">
        <ele>147.2</ele>
        <time>2020-10-17T18:07:53.000Z</time>
      </trkpt>
      <trkpt lat="44.31181" lon="0.85045">
        <ele>146.2</ele>
        <time>2020-10-17T18:07:45.000Z</time>
      </trkpt>
      <trkpt lat="44.31188" lon="0.85039">
        <ele>145.2</ele>
        <time>2020-10-17T18:07:36.000Z</time>
      </trkpt>
      <trkpt lat="44.31194" lon="0.85036">
        <ele>144.3</ele>
        <time>2020-10-17T18:07:28.000Z</time>
      </trkpt>
      <trkpt lat="44.31202" lon="0.85032">
        <ele>143</ele>
        <time>2020-10-17T18:07:19.000Z</time>
      </trkpt>
      <trkpt lat="44.31209" lon="0.85029">
        <ele>141.8</ele>
        <time>2020-10-17T18:07:11.000Z</time>
      </trkpt>
      <trkpt lat="44.31217" lon="0.85025">
        <ele>140.3</ele>
        <time>2020-10-17T18:07:02.000Z</time>
      </trkpt>
      <trkpt lat="44.31226" lon="0.8502">
        <ele>139.1</ele>
        <time>2020-10-17T18:06:54.000Z</time>
      </trkpt>
      <trkpt lat="44.31233" lon="0.85015">
        <ele>138.4</ele>
        <time>2020-10-17T18:06:46.000Z</time>
      </trkpt>
      <trkpt lat="44.31242" lon="0.85008">
        <ele>137.6</ele>
        <time>2020-10-17T18:06:37.000Z</time>
      </trkpt>
      <trkpt lat="44.31251" lon="0.85002">
        <ele>136.8</ele>
        <time>2020-10-17T18:06:29.000Z</time>
      </trkpt>
      <trkpt lat="44.3126" lon="0.84995">
        <ele>136.1</ele>
        <time>2020-10-17T18:06:20.000Z</time>
      </trkpt>
      <trkpt lat="44.31266" lon="0.84992">
        <ele>135.5</ele>
        <time>2020-10-17T18:06:12.000Z</time>
      </trkpt>
      <trkpt lat="44.31282" lon="0.8498">
        <ele>134.2</ele>
        <time>2020-10-17T18:05:55.000Z</time>
      </trkpt>
      <trkpt lat="44.3129" lon="0.84972">
        <ele>133.7</ele>
        <time>2020-10-17T18:05:47.000Z</time>
      </trkpt>
      <trkpt lat="44.31299" lon="0.84963">
        <ele>133.3</ele>
        <time>2020-10-17T18:05:38.000Z</time>
      </trkpt>
      <trkpt lat="44.31307" lon="0.84955">
        <ele>133.1</ele>
        <time>2020-10-17T18:05:30.000Z</time>
      </trkpt>
      <trkpt lat="44.31313" lon="0.84949">
        <ele>132.6</ele>
        <time>2020-10-17T18:05:22.000Z</time>
      </trkpt>
      <trkpt lat="44.31321" lon="0.8494">
        <ele>131.9</ele>
        <time>2020-10-17T18:05:13.000Z</time>
      </trkpt>
      <trkpt lat="44.31327" lon="0.84933">
        <ele>131.2</ele>
        <time>2020-10-17T18:05:05.000Z</time>
      </trkpt>
      <trkpt lat="44.31334" lon="0.84923">
        <ele>130.7</ele>
        <time>2020-10-17T18:04:56.000Z</time>
      </trkpt>
      <trkpt lat="44.31338" lon="0.84919">
        <ele>130.2</ele>
        <time>2020-10-17T18:04:48.000Z</time>
      </trkpt>
      <trkpt lat="44.31344" lon="0.84912">
        <ele>129.5</ele>
        <time>2020-10-17T18:04:40.000Z</time>
      </trkpt>
      <trkpt lat="44.31351" lon="0.84903">
        <ele>128.6</ele>
        <time>2020-10-17T18:04:31.000Z</time>
      </trkpt>
      <trkpt lat="44.31355" lon="0.84901">
        <ele>128.2</ele>
        <time>2020-10-17T18:04:23.000Z</time>
      </trkpt>
      <trkpt lat="44.31362" lon="0.84893">
        <ele>127.7</ele>
        <time>2020-10-17T18:04:14.000Z</time>
      </trkpt>
      <trkpt lat="44.31368" lon="0.84886">
        <ele>126.5</ele>
        <time>2020-10-17T18:04:06.000Z</time>
      </trkpt>
      <trkpt lat="44.31376" lon="0.8488">
        <ele>125</ele>
        <time>2020-10-17T18:03:57.000Z</time>
      </trkpt>
      <trkpt lat="44.31384" lon="0.84874">
        <ele>123.7</ele>
        <time>2020-10-17T18:03:49.000Z</time>
      </trkpt>
      <trkpt lat="44.31392" lon="0.84869">
        <ele>122.5</ele>
        <time>2020-10-17T18:03:41.000Z</time>
      </trkpt>
      <trkpt lat="44.31406" lon="0.84865">
        <ele>120.6</ele>
        <time>2020-10-17T18:03:24.000Z</time>
      </trkpt>
      <trkpt lat="44.31413" lon="0.84862">
        <ele>119.5</ele>
        <time>2020-10-17T18:03:15.000Z</time>
      </trkpt>
      <trkpt lat="44.31421" lon="0.84861">
        <ele>118.6</ele>
        <time>2020-10-17T18:03:07.000Z</time>
      </trkpt>
      <trkpt lat="44.31426" lon="0.84858">
        <ele>118.1</ele>
        <time>2020-10-17T18:02:59.000Z</time>
      </trkpt>
      <trkpt lat="44.3143" lon="0.84858">
        <ele>117.7</ele>
        <time>2020-10-17T18:02:50.000Z</time>
      </trkpt>
      <trkpt lat="44.31438" lon="0.8486">
        <ele>116.7</ele>
        <time>2020-10-17T18:02:42.000Z</time>
      </trkpt>
      <trkpt lat="44.31449" lon="0.84862">
        <ele>115.9</ele>
        <time>2020-10-17T18:02:33.000Z</time>
      </trkpt>
      <trkpt lat="44.31458" lon="0.84862">
        <ele>115.5</ele>
        <time>2020-10-17T18:02:25.000Z</time>
      </trkpt>
      <trkpt lat="44.31468" lon="0.84862">
        <ele>115.2</ele>
        <time>2020-10-17T18:02:17.000Z</time>
      </trkpt>
      <trkpt lat="44.31478" lon="0.84861">
        <ele>115.2</ele>
        <time>2020-10-17T18:02:08.000Z</time>
      </trkpt>
      <trkpt lat="44.31487" lon="0.84854">
        <ele>115.4</ele>
        <time>2020-10-17T18:02:00.000Z</time>
      </trkpt>
      <trkpt lat="44.31495" lon="0.84846">
        <ele>115.4</ele>
        <time>2020-10-17T18:01:51.000Z</time>
      </trkpt>
      <trkpt lat="44.31502" lon="0.84837">
        <ele>115.2</ele>
        <time>2020-10-17T18:01:43.000Z</time>
      </trkpt>
      <trkpt lat="44.3151" lon="0.84828">
        <ele>114.9</ele>
        <time>2020-10-17T18:01:34.000Z</time>
      </trkpt>
      <trkpt lat="44.31518" lon="0.84819">
        <ele>114.7</ele>
        <time>2020-10-17T18:01:26.000Z</time>
      </trkpt>
      <trkpt lat="44.31524" lon="0.84809">
        <ele>114.2</ele>
        <time>2020-10-17T18:01:18.000Z</time>
      </trkpt>
      <trkpt lat="44.31532" lon="0.84797">
        <ele>114.6</ele>
        <time>2020-10-17T18:01:09.000Z</time>
      </trkpt>
      <trkpt lat="44.31543" lon="0.84774">
        <ele>115.3</ele>
        <time>2020-10-17T18:00:52.000Z</time>
      </trkpt>
      <trkpt lat="44.31548" lon="0.84762">
        <ele>116.3</ele>
        <time>2020-10-17T18:00:44.000Z</time>
      </trkpt>
      <trkpt lat="44.31551" lon="0.8475">
        <ele>117.3</ele>
        <time>2020-10-17T18:00:36.000Z</time>
      </trkpt>
      <trkpt lat="44.31558" lon="0.84743">
        <ele>117.6</ele>
        <time>2020-10-17T18:00:27.000Z</time>
      </trkpt>
      <trkpt lat="44.31567" lon="0.8474">
        <ele>117.4</ele>
        <time>2020-10-17T18:00:19.000Z</time>
      </trkpt>
      <trkpt lat="44.31579" lon="0.84736">
        <ele>117.3</ele>
        <time>2020-10-17T18:00:10.000Z</time>
      </trkpt>
      <trkpt lat="44.31589" lon="0.84731">
        <ele>117.3</ele>
        <time>2020-10-17T18:00:02.000Z</time>
      </trkpt>
      <trkpt lat="44.31599" lon="0.84729">
        <ele>116.8</ele>
        <time>2020-10-17T17:59:54.000Z</time>
      </trkpt>
      <trkpt lat="44.31609" lon="0.84723">
        <ele>117</ele>
        <time>2020-10-17T17:59:45.000Z</time>
      </trkpt>
      <trkpt lat="44.31618" lon="0.84715">
        <ele>117.4</ele>
        <time>2020-10-17T17:59:37.000Z</time>
      </trkpt>
      <trkpt lat="44.31628" lon="0.84706">
        <ele>117.9</ele>
        <time>2020-10-17T17:59:28.000Z</time>
      </trkpt>
      <trkpt lat="44.31636" lon="0.847">
        <ele>118.4</ele>
        <time>2020-10-17T17:59:20.000Z</time>
      </trkpt>
      <trkpt lat="44.31644" lon="0.84695">
        <ele>119.2</ele>
        <time>2020-10-17T17:59:12.000Z</time>
      </trkpt>
      <trkpt lat="44.31654" lon="0.84689">
        <ele>120.4</ele>
        <time>2020-10-17T17:59:03.000Z</time>
      </trkpt>
      <trkpt lat="44.31664" lon="0.84686">
        <ele>120.9</ele>
        <time>2020-10-17T17:58:55.000Z</time>
      </trkpt>
      <trkpt lat="44.31674" lon="0.84682">
        <ele>120.7</ele>
        <time>2020-10-17T17:58:46.000Z</time>
      </trkpt>
      <trkpt lat="44.31681" lon="0.8468">
        <ele>120.3</ele>
        <time>2020-10-17T17:58:38.000Z</time>
      </trkpt>
      <trkpt lat="44.3169" lon="0.84683">
        <ele>119.2</ele>
        <time>2020-10-17T17:58:21.000Z</time>
      </trkpt>
      <trkpt lat="44.31698" lon="0.84689">
        <ele>118.4</ele>
        <time>2020-10-17T17:58:13.000Z</time>
      </trkpt>
      <trkpt lat="44.31707" lon="0.84696">
        <ele>117.9</ele>
        <time>2020-10-17T17:58:04.000Z</time>
      </trkpt>
      <trkpt lat="44.31715" lon="0.84701">
        <ele>117.2</ele>
        <time>2020-10-17T17:57:56.000Z</time>
      </trkpt>
      <trkpt lat="44.31723" lon="0.8471">
        <ele>115.7</ele>
        <time>2020-10-17T17:57:47.000Z</time>
      </trkpt>
      <trkpt lat="44.31732" lon="0.84716">
        <ele>114.8</ele>
        <time>2020-10-17T17:57:39.000Z</time>
      </trkpt>
      <trkpt lat="44.3174" lon="0.84722">
        <ele>114.1</ele>
        <time>2020-10-17T17:57:31.000Z</time>
      </trkpt>
      <trkpt lat="44.3175" lon="0.84729">
        <ele>113.3</ele>
        <time>2020-10-17T17:57:22.000Z</time>
      </trkpt>
      <trkpt lat="44.31759" lon="0.84734">
        <ele>112.9</ele>
        <time>2020-10-17T17:57:14.000Z</time>
      </trkpt>
      <trkpt lat="44.31769" lon="0.84741">
        <ele>112.2</ele>
        <time>2020-10-17T17:57:05.000Z</time>
      </trkpt>
      <trkpt lat="44.31777" lon="0.84747">
        <ele>111.5</ele>
        <time>2020-10-17T17:56:57.000Z</time>
      </trkpt>
      <trkpt lat="44.31786" lon="0.84752">
        <ele>110.9</ele>
        <time>2020-10-17T17:56:49.000Z</time>
      </trkpt>
      <trkpt lat="44.31797" lon="0.84757">
        <ele>110.4</ele>
        <time>2020-10-17T17:56:40.000Z</time>
      </trkpt>
      <trkpt lat="44.31806" lon="0.84758">
        <ele>110</ele>
        <time>2020-10-17T17:56:32.000Z</time>
      </trkpt>
      <trkpt lat="44.31816" lon="0.84756">
        <ele>109.4</ele>
        <time>2020-10-17T17:56:23.000Z</time>
      </trkpt>
      <trkpt lat="44.31821" lon="0.84751">
        <ele>109.3</ele>
        <time>2020-10-17T17:56:15.000Z</time>
      </trkpt>
      <trkpt lat="44.31825" lon="0.84748">
        <ele>109.2</ele>
        <time>2020-10-17T17:56:07.000Z</time>
      </trkpt>
      <trkpt lat="44.31829" lon="0.84743">
        <ele>109.2</ele>
        <time>2020-10-17T17:55:50.000Z</time>
      </trkpt>
      <trkpt lat="44.31838" lon="0.84733">
        <ele>109.4</ele>
        <time>2020-10-17T17:55:41.000Z</time>
      </trkpt>
      <trkpt lat="44.31847" lon="0.84726">
        <ele>109.2</ele>
        <time>2020-10-17T17:55:33.000Z</time>
      </trkpt>
      <trkpt lat="44.31854" lon="0.84715">
        <ele>109.1</ele>
        <time>2020-10-17T17:55:24.000Z</time>
      </trkpt>
      <trkpt lat="44.31863" lon="0.84707">
        <ele>108.4</ele>
        <time>2020-10-17T17:55:16.000Z</time>
      </trkpt>
      <trkpt lat="44.3187" lon="0.84699">
        <ele>107.9</ele>
        <time>2020-10-17T17:55:08.000Z</time>
      </trkpt>
      <trkpt lat="44.31878" lon="0.84688">
        <ele>107.4</ele>
        <time>2020-10-17T17:54:59.000Z</time>
      </trkpt>
      <trkpt lat="44.31893" lon="0.8467">
        <ele>106.6</ele>
        <time>2020-10-17T17:54:42.000Z</time>
      </trkpt>
      <trkpt lat="44.319" lon="0.84661">
        <ele>106.1</ele>
        <time>2020-10-17T17:54:34.000Z</time>
      </trkpt>
      <trkpt lat="44.31907" lon="0.84651">
        <ele>105.3</ele>
        <time>2020-10-17T17:54:26.000Z</time>
      </trkpt>
      <trkpt lat="44.31914" lon="0.84648">
        <ele>104.6</ele>
        <time>2020-10-17T17:54:17.000Z</time>
      </trkpt>
      <trkpt lat="44.31922" lon="0.84651">
        <ele>104.2</ele>
        <time>2020-10-17T17:54:09.000Z</time>
      </trkpt>
      <trkpt lat="44.31931" lon="0.84655">
        <ele>103.8</ele>
        <time>2020-10-17T17:54:00.000Z</time>
      </trkpt>
      <trkpt lat="44.31938" lon="0.84657">
        <ele>103.4</ele>
        <time>2020-10-17T17:53:52.000Z</time>
      </trkpt>
      <trkpt lat="44.31942" lon="0.84657">
        <ele>103.2</ele>
        <time>2020-10-17T17:53:35.000Z</time>
      </trkpt>
      <trkpt lat="44.31958" lon="0.84662">
        <ele>102.5</ele>
        <time>2020-10-17T17:53:18.000Z</time>
      </trkpt>
      <trkpt lat="44.31966" lon="0.84665">
        <ele>102.2</ele>
        <time>2020-10-17T17:53:10.000Z</time>
      </trkpt>
      <trkpt lat="44.3197" lon="0.84667">
        <ele>102.1</ele>
        <time>2020-10-17T17:52:53.000Z</time>
      </trkpt>
      <trkpt lat="44.31975" lon="0.84668">
        <ele>102</ele>
        <time>2020-10-17T17:52:45.000Z</time>
      </trkpt>
      <trkpt lat="44.31986" lon="0.84672">
        <ele>102</ele>
        <time>2020-10-17T17:52:36.000Z</time>
      </trkpt>
      <trkpt lat="44.31997" lon="0.84674">
        <ele>102</ele>
        <time>2020-10-17T17:52:28.000Z</time>
      </trkpt>
      <trkpt lat="44.32008" lon="0.84677">
        <ele>102</ele>
        <time>2020-10-17T17:52:19.000Z</time>
      </trkpt>
      <trkpt lat="44.32018" lon="0.84681">
        <ele>102</ele>
        <time>2020-10-17T17:52:11.000Z</time>
      </trkpt>
      <trkpt lat="44.32027" lon="0.84684">
        <ele>102</ele>
        <time>2020-10-17T17:52:03.000Z</time>
      </trkpt>
      <trkpt lat="44.32036" lon="0.84688">
        <ele>102.2</ele>
        <time>2020-10-17T17:51:54.000Z</time>
      </trkpt>
      <trkpt lat="44.32046" lon="0.8469">
        <ele>102.6</ele>
        <time>2020-10-17T17:51:46.000Z</time>
      </trkpt>
      <trkpt lat="44.32055" lon="0.84693">
        <ele>102.9</ele>
        <time>2020-10-17T17:51:37.000Z</time>
      </trkpt>
      <trkpt lat="44.32062" lon="0.84695">
        <ele>103</ele>
        <time>2020-10-17T17:51:29.000Z</time>
      </trkpt>
      <trkpt lat="44.32071" lon="0.84699">
        <ele>102.9</ele>
        <time>2020-10-17T17:51:21.000Z</time>
      </trkpt>
      <trkpt lat="44.32081" lon="0.84704">
        <ele>103</ele>
        <time>2020-10-17T17:51:12.000Z</time>
      </trkpt>
      <trkpt lat="44.3209" lon="0.84709">
        <ele>103.1</ele>
        <time>2020-10-17T17:51:04.000Z</time>
      </trkpt>
      <trkpt lat="44.32113" lon="0.84713">
        <ele>103.8</ele>
        <time>2020-10-17T17:50:47.000Z</time>
      </trkpt>
      <trkpt lat="44.32123" lon="0.84716">
        <ele>105.2</ele>
        <time>2020-10-17T17:50:39.000Z</time>
      </trkpt>
      <trkpt lat="44.32133" lon="0.84728">
        <ele>106.5</ele>
        <time>2020-10-17T17:50:30.000Z</time>
      </trkpt>
      <trkpt lat="44.32138" lon="0.84741">
        <ele>107.6</ele>
        <time>2020-10-17T17:50:22.000Z</time>
      </trkpt>
      <trkpt lat="44.32141" lon="0.84756">
        <ele>108.4</ele>
        <time>2020-10-17T17:50:13.000Z</time>
      </trkpt>
      <trkpt lat="44.32143" lon="0.84765">
        <ele>109.1</ele>
        <time>2020-10-17T17:50:05.000Z</time>
      </trkpt>
      <trkpt lat="44.32146" lon="0.84778">
        <ele>110.2</ele>
        <time>2020-10-17T17:49:56.000Z</time>
      </trkpt>
      <trkpt lat="44.32149" lon="0.84789">
        <ele>111.5</ele>
        <time>2020-10-17T17:49:48.000Z</time>
      </trkpt>
      <trkpt lat="44.32152" lon="0.84794">
        <ele>112.3</ele>
        <time>2020-10-17T17:49:40.000Z</time>
      </trkpt>
      <trkpt lat="44.32156" lon="0.84791">
        <ele>113.5</ele>
        <time>2020-10-17T17:49:31.000Z</time>
      </trkpt>
      <trkpt lat="44.32159" lon="0.84792">
        <ele>114.2</ele>
        <time>2020-10-17T17:49:23.000Z</time>
      </trkpt>
      <trkpt lat="44.32164" lon="0.84806">
        <ele>115.3</ele>
        <time>2020-10-17T17:49:14.000Z</time>
      </trkpt>
      <trkpt lat="44.32169" lon="0.8482">
        <ele>116.6</ele>
        <time>2020-10-17T17:49:06.000Z</time>
      </trkpt>
      <trkpt lat="44.32171" lon="0.84829">
        <ele>117.1</ele>
        <time>2020-10-17T17:48:58.000Z</time>
      </trkpt>
      <trkpt lat="44.32173" lon="0.84839">
        <ele>117.4</ele>
        <time>2020-10-17T17:48:49.000Z</time>
      </trkpt>
      <trkpt lat="44.32177" lon="0.84852">
        <ele>118.3</ele>
        <time>2020-10-17T17:48:41.000Z</time>
      </trkpt>
      <trkpt lat="44.3218" lon="0.84865">
        <ele>118.8</ele>
        <time>2020-10-17T17:48:32.000Z</time>
      </trkpt>
      <trkpt lat="44.32189" lon="0.84886">
        <ele>120.1</ele>
        <time>2020-10-17T17:48:16.000Z</time>
      </trkpt>
      <trkpt lat="44.32195" lon="0.84895">
        <ele>120.8</ele>
        <time>2020-10-17T17:48:07.000Z</time>
      </trkpt>
      <trkpt lat="44.32199" lon="0.84905">
        <ele>121.7</ele>
        <time>2020-10-17T17:47:59.000Z</time>
      </trkpt>
      <trkpt lat="44.32205" lon="0.84915">
        <ele>123</ele>
        <time>2020-10-17T17:47:50.000Z</time>
      </trkpt>
      <trkpt lat="44.32209" lon="0.84923">
        <ele>124</ele>
        <time>2020-10-17T17:47:42.000Z</time>
      </trkpt>
      <trkpt lat="44.32216" lon="0.84933">
        <ele>125.7</ele>
        <time>2020-10-17T17:47:33.000Z</time>
      </trkpt>
      <trkpt lat="44.32221" lon="0.84944">
        <ele>126.6</ele>
        <time>2020-10-17T17:47:25.000Z</time>
      </trkpt>
      <trkpt lat="44.32227" lon="0.84953">
        <ele>128.5</ele>
        <time>2020-10-17T17:47:17.000Z</time>
      </trkpt>
      <trkpt lat="44.32234" lon="0.84959">
        <ele>130.8</ele>
        <time>2020-10-17T17:47:08.000Z</time>
      </trkpt>
      <trkpt lat="44.32239" lon="0.84965">
        <ele>132.4</ele>
        <time>2020-10-17T17:47:00.000Z</time>
      </trkpt>
      <trkpt lat="44.32244" lon="0.84976">
        <ele>133.5</ele>
        <time>2020-10-17T17:46:51.000Z</time>
      </trkpt>
      <trkpt lat="44.32248" lon="0.84985">
        <ele>134.3</ele>
        <time>2020-10-17T17:46:43.000Z</time>
      </trkpt>
      <trkpt lat="44.32254" lon="0.84995">
        <ele>135.7</ele>
        <time>2020-10-17T17:46:35.000Z</time>
      </trkpt>
      <trkpt lat="44.3226" lon="0.85002">
        <ele>137.2</ele>
        <time>2020-10-17T17:46:26.000Z</time>
      </trkpt>
      <trkpt lat="44.32266" lon="0.8501">
        <ele>138.9</ele>
        <time>2020-10-17T17:46:18.000Z</time>
      </trkpt>
      <trkpt lat="44.32273" lon="0.85018">
        <ele>140.4</ele>
        <time>2020-10-17T17:46:09.000Z</time>
      </trkpt>
      <trkpt lat="44.3228" lon="0.85027">
        <ele>141.9</ele>
        <time>2020-10-17T17:46:01.000Z</time>
      </trkpt>
      <trkpt lat="44.32293" lon="0.85044">
        <ele>144.3</ele>
        <time>2020-10-17T17:45:44.000Z</time>
      </trkpt>
      <trkpt lat="44.32299" lon="0.85051">
        <ele>145.5</ele>
        <time>2020-10-17T17:45:36.000Z</time>
      </trkpt>
      <trkpt lat="44.32306" lon="0.85065">
        <ele>146</ele>
        <time>2020-10-17T17:45:27.000Z</time>
      </trkpt>
      <trkpt lat="44.32311" lon="0.85075">
        <ele>146.6</ele>
        <time>2020-10-17T17:45:19.000Z</time>
      </trkpt>
      <trkpt lat="44.32317" lon="0.85085">
        <ele>147</ele>
        <time>2020-10-17T17:45:11.000Z</time>
      </trkpt>
      <trkpt lat="44.32322" lon="0.85096">
        <ele>147.1</ele>
        <time>2020-10-17T17:45:02.000Z</time>
      </trkpt>
      <trkpt lat="44.32328" lon="0.851">
        <ele>148.1</ele>
        <time>2020-10-17T17:44:54.000Z</time>
      </trkpt>
      <trkpt lat="44.32338" lon="0.85099">
        <ele>150.8</ele>
        <time>2020-10-17T17:44:45.000Z</time>
      </trkpt>
      <trkpt lat="44.32345" lon="0.85095">
        <ele>153.4</ele>
        <time>2020-10-17T17:44:37.000Z</time>
      </trkpt>
      <trkpt lat="44.32352" lon="0.85091">
        <ele>155.7</ele>
        <time>2020-10-17T17:44:28.000Z</time>
      </trkpt>
      <trkpt lat="44.3236" lon="0.85089">
        <ele>158</ele>
        <time>2020-10-17T17:44:20.000Z</time>
      </trkpt>
      <trkpt lat="44.32369" lon="0.85086">
        <ele>160.8</ele>
        <time>2020-10-17T17:44:12.000Z</time>
      </trkpt>
      <trkpt lat="44.32377" lon="0.8508">
        <ele>164.3</ele>
        <time>2020-10-17T17:44:03.000Z</time>
      </trkpt>
      <trkpt lat="44.32384" lon="0.85079">
        <ele>166.4</ele>
        <time>2020-10-17T17:43:55.000Z</time>
      </trkpt>
      <trkpt lat="44.32393" lon="0.85082">
        <ele>168.6</ele>
        <time>2020-10-17T17:43:46.000Z</time>
      </trkpt>
      <trkpt lat="44.32401" lon="0.85087">
        <ele>170.1</ele>
        <time>2020-10-17T17:43:38.000Z</time>
      </trkpt>
      <trkpt lat="44.32408" lon="0.85093">
        <ele>171.1</ele>
        <time>2020-10-17T17:43:30.000Z</time>
      </trkpt>
      <trkpt lat="44.32422" lon="0.85112">
        <ele>171.6</ele>
        <time>2020-10-17T17:43:13.000Z</time>
      </trkpt>
      <trkpt lat="44.32429" lon="0.85118">
        <ele>173.3</ele>
        <time>2020-10-17T17:43:04.000Z</time>
      </trkpt>
      <trkpt lat="44.32436" lon="0.85124">
        <ele>174.3</ele>
        <time>2020-10-17T17:42:56.000Z</time>
      </trkpt>
      <trkpt lat="44.32443" lon="0.85128">
        <ele>176</ele>
        <time>2020-10-17T17:42:48.000Z</time>
      </trkpt>
      <trkpt lat="44.32453" lon="0.85133">
        <ele>179.3</ele>
        <time>2020-10-17T17:42:39.000Z</time>
      </trkpt>
      <trkpt lat="44.32462" lon="0.8514">
        <ele>182</ele>
        <time>2020-10-17T17:42:31.000Z</time>
      </trkpt>
      <trkpt lat="44.3247" lon="0.85145">
        <ele>185</ele>
        <time>2020-10-17T17:42:22.000Z</time>
      </trkpt>
      <trkpt lat="44.3248" lon="0.85153">
        <ele>187.5</ele>
        <time>2020-10-17T17:42:14.000Z</time>
      </trkpt>
      <trkpt lat="44.32489" lon="0.8515">
        <ele>191.4</ele>
        <time>2020-10-17T17:42:06.000Z</time>
      </trkpt>
      <trkpt lat="44.32501" lon="0.85153">
        <ele>195.2</ele>
        <time>2020-10-17T17:41:57.000Z</time>
      </trkpt>
      <trkpt lat="44.32511" lon="0.85155">
        <ele>197</ele>
        <time>2020-10-17T17:41:49.000Z</time>
      </trkpt>
      <trkpt lat="44.32521" lon="0.85157">
        <ele>198.8</ele>
        <time>2020-10-17T17:41:40.000Z</time>
      </trkpt>
      <trkpt lat="44.32532" lon="0.85164">
        <ele>200.7</ele>
        <time>2020-10-17T17:41:23.000Z</time>
      </trkpt>
      <trkpt lat="44.32542" lon="0.85173">
        <ele>201.9</ele>
        <time>2020-10-17T17:40:58.000Z</time>
      </trkpt>
      <trkpt lat="44.32556" lon="0.85184">
        <ele>204</ele>
        <time>2020-10-17T17:40:41.000Z</time>
      </trkpt>
      <trkpt lat="44.32565" lon="0.8519">
        <ele>204.8</ele>
        <time>2020-10-17T17:40:33.000Z</time>
      </trkpt>
      <trkpt lat="44.32584" lon="0.85205">
        <ele>205.7</ele>
        <time>2020-10-17T17:39:51.000Z</time>
      </trkpt>
      <trkpt lat="44.32591" lon="0.85211">
        <ele>205.9</ele>
        <time>2020-10-17T17:39:43.000Z</time>
      </trkpt>
      <trkpt lat="44.32586" lon="0.85226">
        <ele>205.2</ele>
        <time>2020-10-17T17:39:34.000Z</time>
      </trkpt>
      <trkpt lat="44.32582" lon="0.85239">
        <ele>204.9</ele>
        <time>2020-10-17T17:39:26.000Z</time>
      </trkpt>
      <trkpt lat="44.32579" lon="0.85258">
        <ele>204.4</ele>
        <time>2020-10-17T17:38:52.000Z</time>
      </trkpt>
      <trkpt lat="44.32576" lon="0.85271">
        <ele>203.9</ele>
        <time>2020-10-17T17:38:44.000Z</time>
      </trkpt>
      <trkpt lat="44.32572" lon="0.85282">
        <ele>203.4</ele>
        <time>2020-10-17T17:38:35.000Z</time>
      </trkpt>
      <trkpt lat="44.32568" lon="0.85293">
        <ele>202.9</ele>
        <time>2020-10-17T17:38:27.000Z</time>
      </trkpt>
      <trkpt lat="44.3257" lon="0.85299">
        <ele>202.8</ele>
        <time>2020-10-17T17:38:02.000Z</time>
      </trkpt>
      <trkpt lat="44.32576" lon="0.85308">
        <ele>202.6</ele>
        <time>2020-10-17T17:37:53.000Z</time>
      </trkpt>
      <trkpt lat="44.32585" lon="0.85314">
        <ele>202.4</ele>
        <time>2020-10-17T17:37:45.000Z</time>
      </trkpt>
      <trkpt lat="44.32595" lon="0.85321">
        <ele>201.9</ele>
        <time>2020-10-17T17:37:36.000Z</time>
      </trkpt>
      <trkpt lat="44.32605" lon="0.85328">
        <ele>201.4</ele>
        <time>2020-10-17T17:37:28.000Z</time>
      </trkpt>
      <trkpt lat="44.32615" lon="0.85334">
        <ele>201</ele>
        <time>2020-10-17T17:37:20.000Z</time>
      </trkpt>
      <trkpt lat="44.32626" lon="0.85342">
        <ele>199.8</ele>
        <time>2020-10-17T17:37:11.000Z</time>
      </trkpt>
      <trkpt lat="44.32638" lon="0.85345">
        <ele>199.4</ele>
        <time>2020-10-17T17:37:03.000Z</time>
      </trkpt>
      <trkpt lat="44.3265" lon="0.85349">
        <ele>198.8</ele>
        <time>2020-10-17T17:36:54.000Z</time>
      </trkpt>
      <trkpt lat="44.32661" lon="0.85352">
        <ele>198.4</ele>
        <time>2020-10-17T17:36:46.000Z</time>
      </trkpt>
      <trkpt lat="44.32672" lon="0.85358">
        <ele>198</ele>
        <time>2020-10-17T17:36:38.000Z</time>
      </trkpt>
      <trkpt lat="44.32684" lon="0.85363">
        <ele>197.9</ele>
        <time>2020-10-17T17:36:29.000Z</time>
      </trkpt>
      <trkpt lat="44.32693" lon="0.85369">
        <ele>197.5</ele>
        <time>2020-10-17T17:36:21.000Z</time>
      </trkpt>
      <trkpt lat="44.32705" lon="0.85375">
        <ele>197.9</ele>
        <time>2020-10-17T17:36:12.000Z</time>
      </trkpt>
      <trkpt lat="44.32713" lon="0.85381">
        <ele>198.3</ele>
        <time>2020-10-17T17:36:04.000Z</time>
      </trkpt>
      <trkpt lat="44.32734" lon="0.85407">
        <ele>199.3</ele>
        <time>2020-10-17T17:35:39.000Z</time>
      </trkpt>
      <trkpt lat="44.32742" lon="0.85417">
        <ele>200.1</ele>
        <time>2020-10-17T17:35:30.000Z</time>
      </trkpt>
      <trkpt lat="44.32749" lon="0.85427">
        <ele>201.2</ele>
        <time>2020-10-17T17:35:22.000Z</time>
      </trkpt>
      <trkpt lat="44.32757" lon="0.85437">
        <ele>202.3</ele>
        <time>2020-10-17T17:35:13.000Z</time>
      </trkpt>
      <trkpt lat="44.32765" lon="0.85447">
        <ele>203</ele>
        <time>2020-10-17T17:35:05.000Z</time>
      </trkpt>
      <trkpt lat="44.32771" lon="0.85456">
        <ele>203.5</ele>
        <time>2020-10-17T17:34:57.000Z</time>
      </trkpt>
      <trkpt lat="44.32773" lon="0.85468">
        <ele>203.3</ele>
        <time>2020-10-17T17:34:48.000Z</time>
      </trkpt>
      <trkpt lat="44.32772" lon="0.85482">
        <ele>202.4</ele>
        <time>2020-10-17T17:34:40.000Z</time>
      </trkpt>
      <trkpt lat="44.32772" lon="0.85499">
        <ele>201.6</ele>
        <time>2020-10-17T17:34:31.000Z</time>
      </trkpt>
      <trkpt lat="44.32772" lon="0.85514">
        <ele>200.5</ele>
        <time>2020-10-17T17:34:23.000Z</time>
      </trkpt>
      <trkpt lat="44.32774" lon="0.85527">
        <ele>199.9</ele>
        <time>2020-10-17T17:34:15.000Z</time>
      </trkpt>
      <trkpt lat="44.32775" lon="0.85537">
        <ele>200.2</ele>
        <time>2020-10-17T17:34:06.000Z</time>
      </trkpt>
      <trkpt lat="44.32776" lon="0.8555">
        <ele>200.5</ele>
        <time>2020-10-17T17:33:58.000Z</time>
      </trkpt>
      <trkpt lat="44.32777" lon="0.85564">
        <ele>200.6</ele>
        <time>2020-10-17T17:33:49.000Z</time>
      </trkpt>
      <trkpt lat="44.32776" lon="0.85579">
        <ele>200.4</ele>
        <time>2020-10-17T17:33:41.000Z</time>
      </trkpt>
      <trkpt lat="44.32773" lon="0.85591">
        <ele>200</ele>
        <time>2020-10-17T17:33:32.000Z</time>
      </trkpt>
      <trkpt lat="44.32768" lon="0.85598">
        <ele>199.1</ele>
        <time>2020-10-17T17:33:24.000Z</time>
      </trkpt>
      <trkpt lat="44.32751" lon="0.85611">
        <ele>196.3</ele>
        <time>2020-10-17T17:33:07.000Z</time>
      </trkpt>
      <trkpt lat="44.32743" lon="0.85616">
        <ele>194.4</ele>
        <time>2020-10-17T17:32:59.000Z</time>
      </trkpt>
      <trkpt lat="44.32733" lon="0.8562">
        <ele>191.9</ele>
        <time>2020-10-17T17:32:50.000Z</time>
      </trkpt>
      <trkpt lat="44.32718" lon="0.85632">
        <ele>190.2</ele>
        <time>2020-10-17T17:32:34.000Z</time>
      </trkpt>
      <trkpt lat="44.3271" lon="0.85639">
        <ele>189.9</ele>
        <time>2020-10-17T17:32:25.000Z</time>
      </trkpt>
      <trkpt lat="44.32703" lon="0.85645">
        <ele>189.4</ele>
        <time>2020-10-17T17:32:17.000Z</time>
      </trkpt>
      <trkpt lat="44.32695" lon="0.85655">
        <ele>189.4</ele>
        <time>2020-10-17T17:32:08.000Z</time>
      </trkpt>
      <trkpt lat="44.32689" lon="0.85663">
        <ele>189</ele>
        <time>2020-10-17T17:32:00.000Z</time>
      </trkpt>
      <trkpt lat="44.32684" lon="0.85669">
        <ele>188.4</ele>
        <time>2020-10-17T17:31:52.000Z</time>
      </trkpt>
      <trkpt lat="44.32682" lon="0.85672">
        <ele>187.9</ele>
        <time>2020-10-17T17:31:43.000Z</time>
      </trkpt>
      <trkpt lat="44.32676" lon="0.85681">
        <ele>187</ele>
        <time>2020-10-17T17:31:35.000Z</time>
      </trkpt>
      <trkpt lat="44.3267" lon="0.85692">
        <ele>186</ele>
        <time>2020-10-17T17:31:26.000Z</time>
      </trkpt>
      <trkpt lat="44.32666" lon="0.85699">
        <ele>184.9</ele>
        <time>2020-10-17T17:31:18.000Z</time>
      </trkpt>
      <trkpt lat="44.32661" lon="0.8571">
        <ele>183.8</ele>
        <time>2020-10-17T17:31:10.000Z</time>
      </trkpt>
      <trkpt lat="44.32656" lon="0.85722">
        <ele>182.8</ele>
        <time>2020-10-17T17:31:01.000Z</time>
      </trkpt>
      <trkpt lat="44.32652" lon="0.85734">
        <ele>181.2</ele>
        <time>2020-10-17T17:30:53.000Z</time>
      </trkpt>
      <trkpt lat="44.32646" lon="0.85762">
        <ele>177.4</ele>
        <time>2020-10-17T17:30:36.000Z</time>
      </trkpt>
      <trkpt lat="44.32644" lon="0.85778">
        <ele>175</ele>
        <time>2020-10-17T17:30:27.000Z</time>
      </trkpt>
      <trkpt lat="44.32647" lon="0.8579">
        <ele>174.1</ele>
        <time>2020-10-17T17:30:19.000Z</time>
      </trkpt>
      <trkpt lat="44.32652" lon="0.858">
        <ele>174.7</ele>
        <time>2020-10-17T17:30:11.000Z</time>
      </trkpt>
      <trkpt lat="44.32655" lon="0.8581">
        <ele>174.1</ele>
        <time>2020-10-17T17:30:02.000Z</time>
      </trkpt>
      <trkpt lat="44.32658" lon="0.8582">
        <ele>173.6</ele>
        <time>2020-10-17T17:29:54.000Z</time>
      </trkpt>
      <trkpt lat="44.32663" lon="0.85834">
        <ele>173.5</ele>
        <time>2020-10-17T17:29:45.000Z</time>
      </trkpt>
      <trkpt lat="44.32668" lon="0.85846">
        <ele>173.7</ele>
        <time>2020-10-17T17:29:37.000Z</time>
      </trkpt>
      <trkpt lat="44.32672" lon="0.85857">
        <ele>174.3</ele>
        <time>2020-10-17T17:29:29.000Z</time>
      </trkpt>
      <trkpt lat="44.32678" lon="0.85871">
        <ele>174.9</ele>
        <time>2020-10-17T17:29:20.000Z</time>
      </trkpt>
      <trkpt lat="44.32683" lon="0.85881">
        <ele>175.3</ele>
        <time>2020-10-17T17:29:12.000Z</time>
      </trkpt>
      <trkpt lat="44.32687" lon="0.85893">
        <ele>174.9</ele>
        <time>2020-10-17T17:29:03.000Z</time>
      </trkpt>
      <trkpt lat="44.32691" lon="0.85904">
        <ele>174.3</ele>
        <time>2020-10-17T17:28:55.000Z</time>
      </trkpt>
      <trkpt lat="44.32694" lon="0.85916">
        <ele>173</ele>
        <time>2020-10-17T17:28:47.000Z</time>
      </trkpt>
      <trkpt lat="44.32696" lon="0.85931">
        <ele>171.8</ele>
        <time>2020-10-17T17:28:38.000Z</time>
      </trkpt>
      <trkpt lat="44.32699" lon="0.8594">
        <ele>171.7</ele>
        <time>2020-10-17T17:28:30.000Z</time>
      </trkpt>
      <trkpt lat="44.327" lon="0.85954">
        <ele>170.8</ele>
        <time>2020-10-17T17:28:21.000Z</time>
      </trkpt>
      <trkpt lat="44.32705" lon="0.85982">
        <ele>169.4</ele>
        <time>2020-10-17T17:28:05.000Z</time>
      </trkpt>
      <trkpt lat="44.3271" lon="0.85992">
        <ele>170.1</ele>
        <time>2020-10-17T17:27:56.000Z</time>
      </trkpt>
      <trkpt lat="44.32717" lon="0.86002">
        <ele>170.9</ele>
        <time>2020-10-17T17:27:48.000Z</time>
      </trkpt>
      <trkpt lat="44.32723" lon="0.86014">
        <ele>171.1</ele>
        <time>2020-10-17T17:27:39.000Z</time>
      </trkpt>
      <trkpt lat="44.32727" lon="0.86023">
        <ele>171.9</ele>
        <time>2020-10-17T17:27:31.000Z</time>
      </trkpt>
      <trkpt lat="44.32734" lon="0.86037">
        <ele>172.7</ele>
        <time>2020-10-17T17:27:22.000Z</time>
      </trkpt>
      <trkpt lat="44.3274" lon="0.86049">
        <ele>172.3</ele>
        <time>2020-10-17T17:27:14.000Z</time>
      </trkpt>
      <trkpt lat="44.32746" lon="0.8606">
        <ele>172.1</ele>
        <time>2020-10-17T17:27:06.000Z</time>
      </trkpt>
      <trkpt lat="44.32755" lon="0.86067">
        <ele>174.1</ele>
        <time>2020-10-17T17:26:57.000Z</time>
      </trkpt>
      <trkpt lat="44.32762" lon="0.86068">
        <ele>176.9</ele>
        <time>2020-10-17T17:26:49.000Z</time>
      </trkpt>
      <trkpt lat="44.32769" lon="0.86073">
        <ele>178.3</ele>
        <time>2020-10-17T17:26:40.000Z</time>
      </trkpt>
      <trkpt lat="44.32776" lon="0.86078">
        <ele>180</ele>
        <time>2020-10-17T17:26:32.000Z</time>
      </trkpt>
      <trkpt lat="44.32782" lon="0.86084">
        <ele>181.3</ele>
        <time>2020-10-17T17:26:24.000Z</time>
      </trkpt>
      <trkpt lat="44.32785" lon="0.86092">
        <ele>182.8</ele>
        <time>2020-10-17T17:26:15.000Z</time>
      </trkpt>
      <trkpt lat="44.32788" lon="0.86098">
        <ele>184.6</ele>
        <time>2020-10-17T17:26:07.000Z</time>
      </trkpt>
      <trkpt lat="44.32792" lon="0.8611">
        <ele>186.3</ele>
        <time>2020-10-17T17:25:58.000Z</time>
      </trkpt>
      <trkpt lat="44.32793" lon="0.86119">
        <ele>187.2</ele>
        <time>2020-10-17T17:25:50.000Z</time>
      </trkpt>
      <trkpt lat="44.32788" lon="0.86142">
        <ele>185.7</ele>
        <time>2020-10-17T17:25:33.000Z</time>
      </trkpt>
      <trkpt lat="44.32786" lon="0.86152">
        <ele>185.2</ele>
        <time>2020-10-17T17:25:25.000Z</time>
      </trkpt>
      <trkpt lat="44.32784" lon="0.86163">
        <ele>185.2</ele>
        <time>2020-10-17T17:25:16.000Z</time>
      </trkpt>
      <trkpt lat="44.32783" lon="0.86174">
        <ele>186.2</ele>
        <time>2020-10-17T17:25:08.000Z</time>
      </trkpt>
      <trkpt lat="44.32783" lon="0.86187">
        <ele>188.3</ele>
        <time>2020-10-17T17:24:59.000Z</time>
      </trkpt>
      <trkpt lat="44.32785" lon="0.86199">
        <ele>191.1</ele>
        <time>2020-10-17T17:24:51.000Z</time>
      </trkpt>
      <trkpt lat="44.32786" lon="0.86211">
        <ele>193</ele>
        <time>2020-10-17T17:24:43.000Z</time>
      </trkpt>
      <trkpt lat="44.32787" lon="0.86226">
        <ele>195.6</ele>
        <time>2020-10-17T17:24:34.000Z</time>
      </trkpt>
      <trkpt lat="44.32789" lon="0.86234">
        <ele>197.3</ele>
        <time>2020-10-17T17:24:26.000Z</time>
      </trkpt>
      <trkpt lat="44.32791" lon="0.86244">
        <ele>199.1</ele>
        <time>2020-10-17T17:24:17.000Z</time>
      </trkpt>
      <trkpt lat="44.32793" lon="0.8625">
        <ele>200.2</ele>
        <time>2020-10-17T17:24:09.000Z</time>
      </trkpt>
      <trkpt lat="44.32796" lon="0.86256">
        <ele>201.1</ele>
        <time>2020-10-17T17:24:01.000Z</time>
      </trkpt>
      <trkpt lat="44.32799" lon="0.86265">
        <ele>202.1</ele>
        <time>2020-10-17T17:23:52.000Z</time>
      </trkpt>
      <trkpt lat="44.32803" lon="0.86271">
        <ele>202.7</ele>
        <time>2020-10-17T17:23:44.000Z</time>
      </trkpt>
      <trkpt lat="44.32799" lon="0.86272">
        <ele>202.6</ele>
        <time>2020-10-17T17:23:35.000Z</time>
      </trkpt>
      <trkpt lat="44.32797" lon="0.86275">
        <ele>202.7</ele>
        <time>2020-10-17T17:23:27.000Z</time>
      </trkpt>
      <trkpt lat="44.3279" lon="0.86277">
        <ele>202.9</ele>
        <time>2020-10-17T17:23:19.000Z</time>
      </trkpt>
      <trkpt lat="44.32778" lon="0.86281">
        <ele>203.4</ele>
        <time>2020-10-17T17:23:02.000Z</time>
      </trkpt>
      <trkpt lat="44.32772" lon="0.86282">
        <ele>203.6</ele>
        <time>2020-10-17T17:22:53.000Z</time>
      </trkpt>
      <trkpt lat="44.32766" lon="0.86285">
        <ele>204.2</ele>
        <time>2020-10-17T17:22:45.000Z</time>
      </trkpt>
      <trkpt lat="44.32757" lon="0.86287">
        <ele>204.8</ele>
        <time>2020-10-17T17:22:37.000Z</time>
      </trkpt>
      <trkpt lat="44.32747" lon="0.86288">
        <ele>205.3</ele>
        <time>2020-10-17T17:22:28.000Z</time>
      </trkpt>
      <trkpt lat="44.3273" lon="0.86292">
        <ele>207.4</ele>
        <time>2020-10-17T17:22:11.000Z</time>
      </trkpt>
      <trkpt lat="44.32722" lon="0.86293">
        <ele>208.3</ele>
        <time>2020-10-17T17:22:03.000Z</time>
      </trkpt>
      <trkpt lat="44.32715" lon="0.86293">
        <ele>208.9</ele>
        <time>2020-10-17T17:21:54.000Z</time>
      </trkpt>
      <trkpt lat="44.32708" lon="0.86292">
        <ele>209.4</ele>
        <time>2020-10-17T17:21:46.000Z</time>
      </trkpt>
      <trkpt lat="44.32701" lon="0.86292">
        <ele>209.9</ele>
        <time>2020-10-17T17:21:38.000Z</time>
      </trkpt>
      <trkpt lat="44.32691" lon="0.86287">
        <ele>209.9</ele>
        <time>2020-10-17T17:21:29.000Z</time>
      </trkpt>
      <trkpt lat="44.32685" lon="0.86284">
        <ele>209.9</ele>
        <time>2020-10-17T17:21:21.000Z</time>
      </trkpt>
      <trkpt lat="44.32674" lon="0.86281">
        <ele>210.4</ele>
        <time>2020-10-17T17:21:12.000Z</time>
      </trkpt>
      <trkpt lat="44.32666" lon="0.86278">
        <ele>210.9</ele>
        <time>2020-10-17T17:21:04.000Z</time>
      </trkpt>
      <trkpt lat="44.32658" lon="0.86277">
        <ele>210.3</ele>
        <time>2020-10-17T17:20:56.000Z</time>
      </trkpt>
      <trkpt lat="44.32648" lon="0.86275">
        <ele>209.5</ele>
        <time>2020-10-17T17:20:47.000Z</time>
      </trkpt>
      <trkpt lat="44.32629" lon="0.86276">
        <ele>208.7</ele>
        <time>2020-10-17T17:20:30.000Z</time>
      </trkpt>
      <trkpt lat="44.32621" lon="0.86276">
        <ele>208.1</ele>
        <time>2020-10-17T17:20:22.000Z</time>
      </trkpt>
      <trkpt lat="44.32612" lon="0.86276">
        <ele>207.6</ele>
        <time>2020-10-17T17:20:14.000Z</time>
      </trkpt>
      <trkpt lat="44.32603" lon="0.86277">
        <ele>206.8</ele>
        <time>2020-10-17T17:20:05.000Z</time>
      </trkpt>
      <trkpt lat="44.32595" lon="0.86278">
        <ele>206.2</ele>
        <time>2020-10-17T17:19:57.000Z</time>
      </trkpt>
      <trkpt lat="44.32586" lon="0.86278">
        <ele>205.3</ele>
        <time>2020-10-17T17:19:48.000Z</time>
      </trkpt>
      <trkpt lat="44.32578" lon="0.86278">
        <ele>204.9</ele>
        <time>2020-10-17T17:19:40.000Z</time>
      </trkpt>
      <trkpt lat="44.3257" lon="0.8628">
        <ele>204.8</ele>
        <time>2020-10-17T17:19:31.000Z</time>
      </trkpt>
      <trkpt lat="44.32562" lon="0.86282">
        <ele>204.7</ele>
        <time>2020-10-17T17:19:23.000Z</time>
      </trkpt>
      <trkpt lat="44.32554" lon="0.86284">
        <ele>204.6</ele>
        <time>2020-10-17T17:19:15.000Z</time>
      </trkpt>
      <trkpt lat="44.32545" lon="0.86282">
        <ele>204.4</ele>
        <time>2020-10-17T17:19:06.000Z</time>
      </trkpt>
      <trkpt lat="44.32537" lon="0.86279">
        <ele>204.1</ele>
        <time>2020-10-17T17:18:58.000Z</time>
      </trkpt>
      <trkpt lat="44.32529" lon="0.86276">
        <ele>203.7</ele>
        <time>2020-10-17T17:18:49.000Z</time>
      </trkpt>
      <trkpt lat="44.3252" lon="0.86272">
        <ele>203.1</ele>
        <time>2020-10-17T17:18:41.000Z</time>
      </trkpt>
      <trkpt lat="44.32513" lon="0.86269">
        <ele>202.9</ele>
        <time>2020-10-17T17:18:33.000Z</time>
      </trkpt>
      <trkpt lat="44.32503" lon="0.86265">
        <ele>202.9</ele>
        <time>2020-10-17T17:18:24.000Z</time>
      </trkpt>
      <trkpt lat="44.32495" lon="0.8626">
        <ele>202.4</ele>
        <time>2020-10-17T17:18:16.000Z</time>
      </trkpt>
      <trkpt lat="44.32484" lon="0.86251">
        <ele>201.4</ele>
        <time>2020-10-17T17:17:59.000Z</time>
      </trkpt>
      <trkpt lat="44.32477" lon="0.86247">
        <ele>200.7</ele>
        <time>2020-10-17T17:17:51.000Z</time>
      </trkpt>
      <trkpt lat="44.32478" lon="0.86239">
        <ele>199.7</ele>
        <time>2020-10-17T17:17:17.000Z</time>
      </trkpt>
      <trkpt lat="44.32479" lon="0.86231">
        <ele>198.6</ele>
        <time>2020-10-17T17:17:09.000Z</time>
      </trkpt>
      <trkpt lat="44.32478" lon="0.86224">
        <ele>197.5</ele>
        <time>2020-10-17T17:17:00.000Z</time>
      </trkpt>
      <trkpt lat="44.32476" lon="0.86215">
        <ele>196.1</ele>
        <time>2020-10-17T17:16:52.000Z</time>
      </trkpt>
      <trkpt lat="44.32473" lon="0.86203">
        <ele>194.3</ele>
        <time>2020-10-17T17:16:43.000Z</time>
      </trkpt>
      <trkpt lat="44.32471" lon="0.86193">
        <ele>192.7</ele>
        <time>2020-10-17T17:16:35.000Z</time>
      </trkpt>
      <trkpt lat="44.32468" lon="0.86184">
        <ele>190.3</ele>
        <time>2020-10-17T17:16:26.000Z</time>
      </trkpt>
      <trkpt lat="44.32467" lon="0.86177">
        <ele>188.9</ele>
        <time>2020-10-17T17:16:18.000Z</time>
      </trkpt>
      <trkpt lat="44.32464" lon="0.8617">
        <ele>187.4</ele>
        <time>2020-10-17T17:16:10.000Z</time>
      </trkpt>
      <trkpt lat="44.32461" lon="0.86162">
        <ele>186.1</ele>
        <time>2020-10-17T17:16:01.000Z</time>
      </trkpt>
      <trkpt lat="44.32458" lon="0.86157">
        <ele>185.6</ele>
        <time>2020-10-17T17:15:53.000Z</time>
      </trkpt>
      <trkpt lat="44.32453" lon="0.8615">
        <ele>184.7</ele>
        <time>2020-10-17T17:15:44.000Z</time>
      </trkpt>
      <trkpt lat="44.32446" lon="0.86137">
        <ele>183.3</ele>
        <time>2020-10-17T17:15:28.000Z</time>
      </trkpt>
      <trkpt lat="44.32441" lon="0.86131">
        <ele>182</ele>
        <time>2020-10-17T17:15:19.000Z</time>
      </trkpt>
      <trkpt lat="44.32437" lon="0.86124">
        <ele>180.4</ele>
        <time>2020-10-17T17:15:11.000Z</time>
      </trkpt>
      <trkpt lat="44.32433" lon="0.86119">
        <ele>179.5</ele>
        <time>2020-10-17T17:15:02.000Z</time>
      </trkpt>
      <trkpt lat="44.32429" lon="0.86114">
        <ele>178.6</ele>
        <time>2020-10-17T17:14:54.000Z</time>
      </trkpt>
      <trkpt lat="44.32424" lon="0.86108">
        <ele>177.9</ele>
        <time>2020-10-17T17:14:46.000Z</time>
      </trkpt>
      <trkpt lat="44.32417" lon="0.86101">
        <ele>177.5</ele>
        <time>2020-10-17T17:14:37.000Z</time>
      </trkpt>
      <trkpt lat="44.32411" lon="0.86097">
        <ele>176.3</ele>
        <time>2020-10-17T17:14:29.000Z</time>
      </trkpt>
      <trkpt lat="44.32403" lon="0.86095">
        <ele>175</ele>
        <time>2020-10-17T17:14:20.000Z</time>
      </trkpt>
      <trkpt lat="44.32397" lon="0.86095">
        <ele>174.4</ele>
        <time>2020-10-17T17:14:12.000Z</time>
      </trkpt>
      <trkpt lat="44.32393" lon="0.86093">
        <ele>173.8</ele>
        <time>2020-10-17T17:14:04.000Z</time>
      </trkpt>
      <trkpt lat="44.32387" lon="0.86091">
        <ele>172.7</ele>
        <time>2020-10-17T17:13:55.000Z</time>
      </trkpt>
      <trkpt lat="44.32383" lon="0.86089">
        <ele>171.7</ele>
        <time>2020-10-17T17:13:47.000Z</time>
      </trkpt>
      <trkpt lat="44.32376" lon="0.86084">
        <ele>170.3</ele>
        <time>2020-10-17T17:13:38.000Z</time>
      </trkpt>
      <trkpt lat="44.32372" lon="0.86081">
        <ele>169.4</ele>
        <time>2020-10-17T17:13:30.000Z</time>
      </trkpt>
      <trkpt lat="44.32369" lon="0.86074">
        <ele>168.8</ele>
        <time>2020-10-17T17:13:21.000Z</time>
      </trkpt>
      <trkpt lat="44.32366" lon="0.86068">
        <ele>168.3</ele>
        <time>2020-10-17T17:13:13.000Z</time>
      </trkpt>
      <trkpt lat="44.32358" lon="0.8605">
        <ele>167.1</ele>
        <time>2020-10-17T17:12:56.000Z</time>
      </trkpt>
      <trkpt lat="44.32356" lon="0.86043">
        <ele>166.4</ele>
        <time>2020-10-17T17:12:48.000Z</time>
      </trkpt>
      <trkpt lat="44.32352" lon="0.86034">
        <ele>165.3</ele>
        <time>2020-10-17T17:12:39.000Z</time>
      </trkpt>
      <trkpt lat="44.32349" lon="0.86028">
        <ele>164.4</ele>
        <time>2020-10-17T17:12:31.000Z</time>
      </trkpt>
      <trkpt lat="44.32345" lon="0.86021">
        <ele>163.2</ele>
        <time>2020-10-17T17:12:23.000Z</time>
      </trkpt>
      <trkpt lat="44.32342" lon="0.86011">
        <ele>162</ele>
        <time>2020-10-17T17:12:14.000Z</time>
      </trkpt>
      <trkpt lat="44.3234" lon="0.86002">
        <ele>161</ele>
        <time>2020-10-17T17:12:06.000Z</time>
      </trkpt>
      <trkpt lat="44.32336" lon="0.85995">
        <ele>159.5</ele>
        <time>2020-10-17T17:11:57.000Z</time>
      </trkpt>
      <trkpt lat="44.32334" lon="0.85988">
        <ele>158.8</ele>
        <time>2020-10-17T17:11:49.000Z</time>
      </trkpt>
      <trkpt lat="44.32331" lon="0.85982">
        <ele>157.6</ele>
        <time>2020-10-17T17:11:41.000Z</time>
      </trkpt>
      <trkpt lat="44.32329" lon="0.85975">
        <ele>156.7</ele>
        <time>2020-10-17T17:11:32.000Z</time>
      </trkpt>
      <trkpt lat="44.32327" lon="0.85969">
        <ele>155.3</ele>
        <time>2020-10-17T17:11:24.000Z</time>
      </trkpt>
      <trkpt lat="44.32324" lon="0.85962">
        <ele>153.4</ele>
        <time>2020-10-17T17:11:15.000Z</time>
      </trkpt>
      <trkpt lat="44.32321" lon="0.85953">
        <ele>151.5</ele>
        <time>2020-10-17T17:11:07.000Z</time>
      </trkpt>
      <trkpt lat="44.32319" lon="0.85946">
        <ele>149.9</ele>
        <time>2020-10-17T17:10:58.000Z</time>
      </trkpt>
      <trkpt lat="44.32317" lon="0.85941">
        <ele>148.8</ele>
        <time>2020-10-17T17:10:50.000Z</time>
      </trkpt>
      <trkpt lat="44.32314" lon="0.85935">
        <ele>147.3</ele>
        <time>2020-10-17T17:10:42.000Z</time>
      </trkpt>
      <trkpt lat="44.32312" lon="0.85924">
        <ele>145.4</ele>
        <time>2020-10-17T17:10:25.000Z</time>
      </trkpt>
      <trkpt lat="44.32309" lon="0.85916">
        <ele>143.7</ele>
        <time>2020-10-17T17:10:16.000Z</time>
      </trkpt>
      <trkpt lat="44.32307" lon="0.85909">
        <ele>141.7</ele>
        <time>2020-10-17T17:10:08.000Z</time>
      </trkpt>
      <trkpt lat="44.32304" lon="0.85903">
        <ele>140.2</ele>
        <time>2020-10-17T17:10:00.000Z</time>
      </trkpt>
      <trkpt lat="44.32303" lon="0.85894">
        <ele>138.6</ele>
        <time>2020-10-17T17:09:51.000Z</time>
      </trkpt>
      <trkpt lat="44.32306" lon="0.85887">
        <ele>137.7</ele>
        <time>2020-10-17T17:09:43.000Z</time>
      </trkpt>
      <trkpt lat="44.3231" lon="0.8588">
        <ele>137.1</ele>
        <time>2020-10-17T17:09:34.000Z</time>
      </trkpt>
      <trkpt lat="44.32316" lon="0.85874">
        <ele>137</ele>
        <time>2020-10-17T17:09:26.000Z</time>
      </trkpt>
      <trkpt lat="44.3232" lon="0.8587">
        <ele>136.9</ele>
        <time>2020-10-17T17:09:18.000Z</time>
      </trkpt>
      <trkpt lat="44.3233" lon="0.85864">
        <ele>137.1</ele>
        <time>2020-10-17T17:09:09.000Z</time>
      </trkpt>
      <trkpt lat="44.32328" lon="0.85863">
        <ele>136.7</ele>
        <time>2020-10-17T17:09:01.000Z</time>
      </trkpt>
      <trkpt lat="44.32332" lon="0.85858">
        <ele>136.1</ele>
        <time>2020-10-17T17:08:52.000Z</time>
      </trkpt>
      <trkpt lat="44.32334" lon="0.85856">
        <ele>135.9</ele>
        <time>2020-10-17T17:08:44.000Z</time>
      </trkpt>
      <trkpt lat="44.32336" lon="0.85851">
        <ele>134.9</ele>
        <time>2020-10-17T17:08:36.000Z</time>
      </trkpt>
      <trkpt lat="44.32342" lon="0.85842">
        <ele>133.3</ele>
        <time>2020-10-17T17:08:27.000Z</time>
      </trkpt>
      <trkpt lat="44.32347" lon="0.85835">
        <ele>131.8</ele>
        <time>2020-10-17T17:08:19.000Z</time>
      </trkpt>
      <trkpt lat="44.32351" lon="0.85826">
        <ele>130.3</ele>
        <time>2020-10-17T17:08:10.000Z</time>
      </trkpt>
      <trkpt lat="44.3235" lon="0.85813">
        <ele>127.9</ele>
        <time>2020-10-17T17:07:53.000Z</time>
      </trkpt>
      <trkpt lat="44.32349" lon="0.85806">
        <ele>126.7</ele>
        <time>2020-10-17T17:07:45.000Z</time>
      </trkpt>
      <trkpt lat="44.32348" lon="0.85799">
        <ele>125.6</ele>
        <time>2020-10-17T17:07:37.000Z</time>
      </trkpt>
      <trkpt lat="44.32346" lon="0.85793">
        <ele>124.6</ele>
        <time>2020-10-17T17:07:28.000Z</time>
      </trkpt>
      <trkpt lat="44.32345" lon="0.85786">
        <ele>123.6</ele>
        <time>2020-10-17T17:07:20.000Z</time>
      </trkpt>
      <trkpt lat="44.32343" lon="0.85781">
        <ele>122.8</ele>
        <time>2020-10-17T17:07:11.000Z</time>
      </trkpt>
      <trkpt lat="44.32336" lon="0.85776">
        <ele>121.8</ele>
        <time>2020-10-17T17:07:03.000Z</time>
      </trkpt>
      <trkpt lat="44.32326" lon="0.85772">
        <ele>120.7</ele>
        <time>2020-10-17T17:06:55.000Z</time>
      </trkpt>
      <trkpt lat="44.32315" lon="0.85769">
        <ele>119.8</ele>
        <time>2020-10-17T17:06:46.000Z</time>
      </trkpt>
      <trkpt lat="44.32304" lon="0.85765">
        <ele>119</ele>
        <time>2020-10-17T17:06:38.000Z</time>
      </trkpt>
      <trkpt lat="44.32294" lon="0.85763">
        <ele>118.3</ele>
        <time>2020-10-17T17:06:29.000Z</time>
      </trkpt>
      <trkpt lat="44.32284" lon="0.8576">
        <ele>117.4</ele>
        <time>2020-10-17T17:06:21.000Z</time>
      </trkpt>
      <trkpt lat="44.32274" lon="0.85756">
        <ele>116.5</ele>
        <time>2020-10-17T17:06:13.000Z</time>
      </trkpt>
      <trkpt lat="44.32261" lon="0.85752">
        <ele>115.5</ele>
        <time>2020-10-17T17:06:04.000Z</time>
      </trkpt>
      <trkpt lat="44.32251" lon="0.85749">
        <ele>114.9</ele>
        <time>2020-10-17T17:05:56.000Z</time>
      </trkpt>
      <trkpt lat="44.32241" lon="0.85746">
        <ele>114.1</ele>
        <time>2020-10-17T17:05:47.000Z</time>
      </trkpt>
      <trkpt lat="44.3223" lon="0.85742">
        <ele>113.2</ele>
        <time>2020-10-17T17:05:39.000Z</time>
      </trkpt>
      <trkpt lat="44.32209" lon="0.85735">
        <ele>111.8</ele>
        <time>2020-10-17T17:05:22.000Z</time>
      </trkpt>
      <trkpt lat="44.32202" lon="0.85729">
        <ele>111.3</ele>
        <time>2020-10-17T17:05:14.000Z</time>
      </trkpt>
      <trkpt lat="44.32194" lon="0.85728">
        <ele>110.9</ele>
        <time>2020-10-17T17:05:05.000Z</time>
      </trkpt>
      <trkpt lat="44.32193" lon="0.85728">
        <ele>110.9</ele>
        <time>2020-10-17T17:04:57.000Z</time>
      </trkpt>
      <trkpt lat="44.32182" lon="0.85729">
        <ele>110.1</ele>
        <time>2020-10-17T17:04:48.000Z</time>
      </trkpt>
      <trkpt lat="44.32173" lon="0.85729">
        <ele>109.4</ele>
        <time>2020-10-17T17:04:40.000Z</time>
      </trkpt>
      <trkpt lat="44.32169" lon="0.8573">
        <ele>109.1</ele>
        <time>2020-10-17T17:04:32.000Z</time>
      </trkpt>
      <trkpt lat="44.3216" lon="0.8573">
        <ele>108.9</ele>
        <time>2020-10-17T17:04:23.000Z</time>
      </trkpt>
      <trkpt lat="44.32149" lon="0.85728">
        <ele>108.9</ele>
        <time>2020-10-17T17:04:15.000Z</time>
      </trkpt>
      <trkpt lat="44.32137" lon="0.85729">
        <ele>108.7</ele>
        <time>2020-10-17T17:04:06.000Z</time>
      </trkpt>
      <trkpt lat="44.32128" lon="0.85729">
        <ele>108.4</ele>
        <time>2020-10-17T17:03:58.000Z</time>
      </trkpt>
      <trkpt lat="44.32117" lon="0.85728">
        <ele>108.2</ele>
        <time>2020-10-17T17:03:50.000Z</time>
      </trkpt>
      <trkpt lat="44.3211" lon="0.85727">
        <ele>108</ele>
        <time>2020-10-17T17:03:41.000Z</time>
      </trkpt>
      <trkpt lat="44.32099" lon="0.85726">
        <ele>108.4</ele>
        <time>2020-10-17T17:03:33.000Z</time>
      </trkpt>
      <trkpt lat="44.3209" lon="0.85728">
        <ele>108.6</ele>
        <time>2020-10-17T17:03:24.000Z</time>
      </trkpt>
      <trkpt lat="44.32081" lon="0.85731">
        <ele>108.6</ele>
        <time>2020-10-17T17:03:16.000Z</time>
      </trkpt>
      <trkpt lat="44.32072" lon="0.85734">
        <ele>108.5</ele>
        <time>2020-10-17T17:03:08.000Z</time>
      </trkpt>
      <trkpt lat="44.32051" lon="0.85739">
        <ele>108.7</ele>
        <time>2020-10-17T17:02:51.000Z</time>
      </trkpt>
      <trkpt lat="44.3204" lon="0.85744">
        <ele>109.2</ele>
        <time>2020-10-17T17:02:42.000Z</time>
      </trkpt>
      <trkpt lat="44.32029" lon="0.85748">
        <ele>109.8</ele>
        <time>2020-10-17T17:02:34.000Z</time>
      </trkpt>
      <trkpt lat="44.32017" lon="0.85751">
        <ele>110.8</ele>
        <time>2020-10-17T17:02:25.000Z</time>
      </trkpt>
      <trkpt lat="44.32006" lon="0.85752">
        <ele>111.4</ele>
        <time>2020-10-17T17:02:17.000Z</time>
      </trkpt>
      <trkpt lat="44.31997" lon="0.85751">
        <ele>112.1</ele>
        <time>2020-10-17T17:02:09.000Z</time>
      </trkpt>
      <trkpt lat="44.31985" lon="0.85746">
        <ele>112.9</ele>
        <time>2020-10-17T17:02:00.000Z</time>
      </trkpt>
      <trkpt lat="44.31977" lon="0.85741">
        <ele>113.5</ele>
        <time>2020-10-17T17:01:52.000Z</time>
      </trkpt>
      <trkpt lat="44.31979" lon="0.85729">
        <ele>113.1</ele>
        <time>2020-10-17T17:01:43.000Z</time>
      </trkpt>
      <trkpt lat="44.31979" lon="0.85725">
        <ele>113.1</ele>
        <time>2020-10-17T17:01:35.000Z</time>
      </trkpt>
      <trkpt lat="44.31983" lon="0.85715">
        <ele>112.3</ele>
        <time>2020-10-17T17:01:27.000Z</time>
      </trkpt>
      <trkpt lat="44.31984" lon="0.85702">
        <ele>112</ele>
        <time>2020-10-17T17:01:18.000Z</time>
      </trkpt>
      <trkpt lat="44.31983" lon="0.85688">
        <ele>111.7</ele>
        <time>2020-10-17T17:01:10.000Z</time>
      </trkpt>
      <trkpt lat="44.31981" lon="0.85673">
        <ele>111.6</ele>
        <time>2020-10-17T17:01:01.000Z</time>
      </trkpt>
      <trkpt lat="44.3198" lon="0.85664">
        <ele>111.5</ele>
        <time>2020-10-17T17:00:53.000Z</time>
      </trkpt>
      <trkpt lat="44.3198" lon="0.85655">
        <ele>111.3</ele>
        <time>2020-10-17T17:00:45.000Z</time>
      </trkpt>
      <trkpt lat="44.31977" lon="0.8564">
        <ele>111.3</ele>
        <time>2020-10-17T17:00:36.000Z</time>
      </trkpt>
      <trkpt lat="44.31975" lon="0.85613">
        <ele>110.8</ele>
        <time>2020-10-17T17:00:19.000Z</time>
      </trkpt>
      <trkpt lat="44.31976" lon="0.856">
        <ele>110.5</ele>
        <time>2020-10-17T17:00:11.000Z</time>
      </trkpt>
      <trkpt lat="44.31978" lon="0.85587">
        <ele>110.4</ele>
        <time>2020-10-17T17:00:03.000Z</time>
      </trkpt>
      <trkpt lat="44.3198" lon="0.85573">
        <ele>110.1</ele>
        <time>2020-10-17T16:59:54.000Z</time>
      </trkpt>
      <trkpt lat="44.31981" lon="0.85559">
        <ele>109.8</ele>
        <time>2020-10-17T16:59:46.000Z</time>
      </trkpt>
      <trkpt lat="44.31983" lon="0.85544">
        <ele>109.4</ele>
        <time>2020-10-17T16:59:37.000Z</time>
      </trkpt>
      <trkpt lat="44.31985" lon="0.8553">
        <ele>109.2</ele>
        <time>2020-10-17T16:59:29.000Z</time>
      </trkpt>
      <trkpt lat="44.31984" lon="0.85516">
        <ele>109.3</ele>
        <time>2020-10-17T16:59:20.000Z</time>
      </trkpt>
      <trkpt lat="44.31978" lon="0.85489">
        <ele>110.1</ele>
        <time>2020-10-17T16:59:04.000Z</time>
      </trkpt>
      <trkpt lat="44.31976" lon="0.85472">
        <ele>110.5</ele>
        <time>2020-10-17T16:58:55.000Z</time>
      </trkpt>
      <trkpt lat="44.31974" lon="0.8546">
        <ele>110.3</ele>
        <time>2020-10-17T16:58:47.000Z</time>
      </trkpt>
      <trkpt lat="44.31971" lon="0.85443">
        <ele>110.2</ele>
        <time>2020-10-17T16:58:30.000Z</time>
      </trkpt>
      <trkpt lat="44.31968" lon="0.85427">
        <ele>110.5</ele>
        <time>2020-10-17T16:58:22.000Z</time>
      </trkpt>
      <trkpt lat="44.31966" lon="0.85418">
        <ele>110.7</ele>
        <time>2020-10-17T16:58:13.000Z</time>
      </trkpt>
      <trkpt lat="44.31964" lon="0.85406">
        <ele>110.8</ele>
        <time>2020-10-17T16:58:05.000Z</time>
      </trkpt>
      <trkpt lat="44.31958" lon="0.85378">
        <ele>111</ele>
        <time>2020-10-17T16:57:48.000Z</time>
      </trkpt>
      <trkpt lat="44.31956" lon="0.85364">
        <ele>111.1</ele>
        <time>2020-10-17T16:57:40.000Z</time>
      </trkpt>
      <trkpt lat="44.31953" lon="0.8535">
        <ele>111.3</ele>
        <time>2020-10-17T16:57:31.000Z</time>
      </trkpt>
      <trkpt lat="44.31951" lon="0.85329">
        <ele>111.3</ele>
        <time>2020-10-17T16:57:14.000Z</time>
      </trkpt>
      <trkpt lat="44.31947" lon="0.85314">
        <ele>111.7</ele>
        <time>2020-10-17T16:57:06.000Z</time>
      </trkpt>
      <trkpt lat="44.31942" lon="0.85299">
        <ele>112</ele>
        <time>2020-10-17T16:56:57.000Z</time>
      </trkpt>
      <trkpt lat="44.31936" lon="0.85284">
        <ele>112</ele>
        <time>2020-10-17T16:56:49.000Z</time>
      </trkpt>
      <trkpt lat="44.31934" lon="0.85275">
        <ele>112.1</ele>
        <time>2020-10-17T16:56:41.000Z</time>
      </trkpt>
      <trkpt lat="44.31932" lon="0.85261">
        <ele>111.7</ele>
        <time>2020-10-17T16:56:32.000Z</time>
      </trkpt>
      <trkpt lat="44.31931" lon="0.8525">
        <ele>111.4</ele>
        <time>2020-10-17T16:56:24.000Z</time>
      </trkpt>
      <trkpt lat="44.31927" lon="0.85234">
        <ele>111.3</ele>
        <time>2020-10-17T16:56:15.000Z</time>
      </trkpt>
      <trkpt lat="44.31923" lon="0.85226">
        <ele>111.4</ele>
        <time>2020-10-17T16:56:07.000Z</time>
      </trkpt>
      <trkpt lat="44.3192" lon="0.85217">
        <ele>111.5</ele>
        <time>2020-10-17T16:55:59.000Z</time>
      </trkpt>
      <trkpt lat="44.31917" lon="0.85208">
        <ele>111.4</ele>
        <time>2020-10-17T16:55:50.000Z</time>
      </trkpt>
      <trkpt lat="44.31914" lon="0.85198">
        <ele>111.4</ele>
        <time>2020-10-17T16:55:42.000Z</time>
      </trkpt>
      <trkpt lat="44.3191" lon="0.85187">
        <ele>111.3</ele>
        <time>2020-10-17T16:55:33.000Z</time>
      </trkpt>
      <trkpt lat="44.31902" lon="0.85167">
        <ele>111.1</ele>
        <time>2020-10-17T16:55:17.000Z</time>
      </trkpt>
      <trkpt lat="44.31896" lon="0.85152">
        <ele>111.4</ele>
        <time>2020-10-17T16:55:08.000Z</time>
      </trkpt>
      <trkpt lat="44.31892" lon="0.85143">
        <ele>111.6</ele>
        <time>2020-10-17T16:55:00.000Z</time>
      </trkpt>
      <trkpt lat="44.31886" lon="0.8513">
        <ele>111.7</ele>
        <time>2020-10-17T16:54:51.000Z</time>
      </trkpt>
      <trkpt lat="44.3188" lon="0.85119">
        <ele>111.7</ele>
        <time>2020-10-17T16:54:43.000Z</time>
      </trkpt>
      <trkpt lat="44.31875" lon="0.85107">
        <ele>111.9</ele>
        <time>2020-10-17T16:54:35.000Z</time>
      </trkpt>
      <trkpt lat="44.31872" lon="0.85094">
        <ele>112.5</ele>
        <time>2020-10-17T16:54:26.000Z</time>
      </trkpt>
      <trkpt lat="44.31868" lon="0.85081">
        <ele>113</ele>
        <time>2020-10-17T16:54:18.000Z</time>
      </trkpt>
      <trkpt lat="44.31861" lon="0.85069">
        <ele>113.5</ele>
        <time>2020-10-17T16:54:09.000Z</time>
      </trkpt>
      <trkpt lat="44.31854" lon="0.85057">
        <ele>114</ele>
        <time>2020-10-17T16:54:01.000Z</time>
      </trkpt>
      <trkpt lat="44.31847" lon="0.85044">
        <ele>114.6</ele>
        <time>2020-10-17T16:53:52.000Z</time>
      </trkpt>
      <trkpt lat="44.3184" lon="0.85033">
        <ele>115.2</ele>
        <time>2020-10-17T16:53:44.000Z</time>
      </trkpt>
      <trkpt lat="44.31835" lon="0.85024">
        <ele>115.5</ele>
        <time>2020-10-17T16:53:36.000Z</time>
      </trkpt>
      <trkpt lat="44.31829" lon="0.85014">
        <ele>115.5</ele>
        <time>2020-10-17T16:53:27.000Z</time>
      </trkpt>
      <trkpt lat="44.31819" lon="0.85003">
        <ele>115.8</ele>
        <time>2020-10-17T16:53:19.000Z</time>
      </trkpt>
      <trkpt lat="44.3181" lon="0.84996">
        <ele>116.2</ele>
        <time>2020-10-17T16:53:10.000Z</time>
      </trkpt>
      <trkpt lat="44.31799" lon="0.84992">
        <ele>116.7</ele>
        <time>2020-10-17T16:53:02.000Z</time>
      </trkpt>
      <trkpt lat="44.31788" lon="0.84989">
        <ele>117.1</ele>
        <time>2020-10-17T16:52:45.000Z</time>
      </trkpt>
      <trkpt lat="44.31779" lon="0.84986">
        <ele>117.4</ele>
        <time>2020-10-17T16:52:37.000Z</time>
      </trkpt>
      <trkpt lat="44.31762" lon="0.84983">
        <ele>119.1</ele>
        <time>2020-10-17T16:52:28.000Z</time>
      </trkpt>
      <trkpt lat="44.3176" lon="0.84986">
        <ele>119.4</ele>
        <time>2020-10-17T16:52:20.000Z</time>
      </trkpt>
      <trkpt lat="44.31754" lon="0.84991">
        <ele>120</ele>
        <time>2020-10-17T16:52:12.000Z</time>
      </trkpt>
      <trkpt lat="44.31751" lon="0.84996">
        <ele>120.1</ele>
        <time>2020-10-17T16:51:55.000Z</time>
      </trkpt>
      <trkpt lat="44.3174" lon="0.85004">
        <ele>121.8</ele>
        <time>2020-10-17T16:51:46.000Z</time>
      </trkpt>
      <trkpt lat="44.31731" lon="0.85012">
        <ele>123.4</ele>
        <time>2020-10-17T16:51:38.000Z</time>
      </trkpt>
      <trkpt lat="44.31722" lon="0.85018">
        <ele>124.7</ele>
        <time>2020-10-17T16:51:29.000Z</time>
      </trkpt>
      <trkpt lat="44.31715" lon="0.85025">
        <ele>125.7</ele>
        <time>2020-10-17T16:51:21.000Z</time>
      </trkpt>
      <trkpt lat="44.31707" lon="0.8503">
        <ele>126.9</ele>
        <time>2020-10-17T16:51:13.000Z</time>
      </trkpt>
      <trkpt lat="44.31697" lon="0.85034">
        <ele>128.5</ele>
        <time>2020-10-17T16:51:04.000Z</time>
      </trkpt>
      <trkpt lat="44.31689" lon="0.85038">
        <ele>129.8</ele>
        <time>2020-10-17T16:50:56.000Z</time>
      </trkpt>
      <trkpt lat="44.31683" lon="0.85036">
        <ele>130.4</ele>
        <time>2020-10-17T16:50:47.000Z</time>
      </trkpt>
      <trkpt lat="44.31673" lon="0.85036">
        <ele>131.7</ele>
        <time>2020-10-17T16:50:39.000Z</time>
      </trkpt>
      <trkpt lat="44.31664" lon="0.85035">
        <ele>133</ele>
        <time>2020-10-17T16:50:31.000Z</time>
      </trkpt>
      <trkpt lat="44.31645" lon="0.85033">
        <ele>136.1</ele>
        <time>2020-10-17T16:50:14.000Z</time>
      </trkpt>
      <trkpt lat="44.31633" lon="0.85034">
        <ele>137.6</ele>
        <time>2020-10-17T16:50:05.000Z</time>
      </trkpt>
      <trkpt lat="44.31624" lon="0.85036">
        <ele>138.4</ele>
        <time>2020-10-17T16:49:57.000Z</time>
      </trkpt>
      <trkpt lat="44.31618" lon="0.85038">
        <ele>138.9</ele>
        <time>2020-10-17T16:49:49.000Z</time>
      </trkpt>
      <trkpt lat="44.31614" lon="0.85039">
        <ele>139.2</ele>
        <time>2020-10-17T16:49:40.000Z</time>
      </trkpt>
      <trkpt lat="44.3161" lon="0.85039">
        <ele>139.4</ele>
        <time>2020-10-17T16:49:32.000Z</time>
      </trkpt>
      <trkpt lat="44.31596" lon="0.85041">
        <ele>139.7</ele>
        <time>2020-10-17T16:49:23.000Z</time>
      </trkpt>
      <trkpt lat="44.31586" lon="0.85045">
        <ele>140.2</ele>
        <time>2020-10-17T16:49:15.000Z</time>
      </trkpt>
      <trkpt lat="44.31569" lon="0.85048">
        <ele>140.3</ele>
        <time>2020-10-17T16:49:07.000Z</time>
      </trkpt>
      <trkpt lat="44.3156" lon="0.85052">
        <ele>140.6</ele>
        <time>2020-10-17T16:48:58.000Z</time>
      </trkpt>
      <trkpt lat="44.31548" lon="0.85058">
        <ele>140.5</ele>
        <time>2020-10-17T16:48:50.000Z</time>
      </trkpt>
      <trkpt lat="44.31536" lon="0.85066">
        <ele>140.8</ele>
        <time>2020-10-17T16:48:41.000Z</time>
      </trkpt>
      <trkpt lat="44.31528" lon="0.85069">
        <ele>141</ele>
        <time>2020-10-17T16:48:33.000Z</time>
      </trkpt>
      <trkpt lat="44.31518" lon="0.85074">
        <ele>141.5</ele>
        <time>2020-10-17T16:48:24.000Z</time>
      </trkpt>
      <trkpt lat="44.31507" lon="0.85077">
        <ele>141.8</ele>
        <time>2020-10-17T16:48:16.000Z</time>
      </trkpt>
      <trkpt lat="44.31498" lon="0.85076">
        <ele>141.3</ele>
        <time>2020-10-17T16:48:08.000Z</time>
      </trkpt>
      <trkpt lat="44.31488" lon="0.85074">
        <ele>141.1</ele>
        <time>2020-10-17T16:47:59.000Z</time>
      </trkpt>
      <trkpt lat="44.31468" lon="0.85077">
        <ele>142.4</ele>
        <time>2020-10-17T16:47:42.000Z</time>
      </trkpt>
      <trkpt lat="44.31459" lon="0.85082">
        <ele>143.2</ele>
        <time>2020-10-17T16:47:34.000Z</time>
      </trkpt>
      <trkpt lat="44.31453" lon="0.85087">
        <ele>143.7</ele>
        <time>2020-10-17T16:47:26.000Z</time>
      </trkpt>
      <trkpt lat="44.3145" lon="0.85089">
        <ele>143.8</ele>
        <time>2020-10-17T16:47:00.000Z</time>
      </trkpt>
      <trkpt lat="44.31443" lon="0.85093">
        <ele>143.8</ele>
        <time>2020-10-17T16:46:44.000Z</time>
      </trkpt>
      <trkpt lat="44.31439" lon="0.851">
        <ele>143.9</ele>
        <time>2020-10-17T16:46:35.000Z</time>
      </trkpt>
      <trkpt lat="44.31436" lon="0.85109">
        <ele>144.5</ele>
        <time>2020-10-17T16:46:27.000Z</time>
      </trkpt>
      <trkpt lat="44.31433" lon="0.85116">
        <ele>144.6</ele>
        <time>2020-10-17T16:46:18.000Z</time>
      </trkpt>
      <trkpt lat="44.31429" lon="0.85124">
        <ele>144.7</ele>
        <time>2020-10-17T16:46:10.000Z</time>
      </trkpt>
      <trkpt lat="44.31424" lon="0.85135">
        <ele>145.2</ele>
        <time>2020-10-17T16:46:02.000Z</time>
      </trkpt>
      <trkpt lat="44.31416" lon="0.85146">
        <ele>145.4</ele>
        <time>2020-10-17T16:45:53.000Z</time>
      </trkpt>
      <trkpt lat="44.31411" lon="0.85157">
        <ele>145.8</ele>
        <time>2020-10-17T16:45:45.000Z</time>
      </trkpt>
      <trkpt lat="44.31403" lon="0.85164">
        <ele>145.8</ele>
        <time>2020-10-17T16:45:36.000Z</time>
      </trkpt>
      <trkpt lat="44.31394" lon="0.85172">
        <ele>145.7</ele>
        <time>2020-10-17T16:45:28.000Z</time>
      </trkpt>
      <trkpt lat="44.31376" lon="0.85197">
        <ele>144.7</ele>
        <time>2020-10-17T16:45:11.000Z</time>
      </trkpt>
      <trkpt lat="44.31369" lon="0.85209">
        <ele>144.7</ele>
        <time>2020-10-17T16:45:03.000Z</time>
      </trkpt>
      <trkpt lat="44.31364" lon="0.85222">
        <ele>145.3</ele>
        <time>2020-10-17T16:44:54.000Z</time>
      </trkpt>
      <trkpt lat="44.31358" lon="0.85237">
        <ele>145.6</ele>
        <time>2020-10-17T16:44:46.000Z</time>
      </trkpt>
      <trkpt lat="44.31349" lon="0.8525">
        <ele>145.3</ele>
        <time>2020-10-17T16:44:37.000Z</time>
      </trkpt>
      <trkpt lat="44.31341" lon="0.85259">
        <ele>145.2</ele>
        <time>2020-10-17T16:44:29.000Z</time>
      </trkpt>
      <trkpt lat="44.31331" lon="0.8527">
        <ele>145.5</ele>
        <time>2020-10-17T16:44:21.000Z</time>
      </trkpt>
      <trkpt lat="44.31323" lon="0.85285">
        <ele>145.3</ele>
        <time>2020-10-17T16:44:12.000Z</time>
      </trkpt>
      <trkpt lat="44.31317" lon="0.85294">
        <ele>145</ele>
        <time>2020-10-17T16:44:04.000Z</time>
      </trkpt>
      <trkpt lat="44.3131" lon="0.85306">
        <ele>144.9</ele>
        <time>2020-10-17T16:43:55.000Z</time>
      </trkpt>
      <trkpt lat="44.31304" lon="0.85321">
        <ele>145.4</ele>
        <time>2020-10-17T16:43:47.000Z</time>
      </trkpt>
      <trkpt lat="44.31297" lon="0.85335">
        <ele>145.7</ele>
        <time>2020-10-17T16:43:39.000Z</time>
      </trkpt>
      <trkpt lat="44.31285" lon="0.85347">
        <ele>145.7</ele>
        <time>2020-10-17T16:43:30.000Z</time>
      </trkpt>
      <trkpt lat="44.31274" lon="0.85356">
        <ele>146.5</ele>
        <time>2020-10-17T16:43:22.000Z</time>
      </trkpt>
      <trkpt lat="44.31263" lon="0.85369">
        <ele>146.7</ele>
        <time>2020-10-17T16:43:13.000Z</time>
      </trkpt>
      <trkpt lat="44.31253" lon="0.85378">
        <ele>146.7</ele>
        <time>2020-10-17T16:43:05.000Z</time>
      </trkpt>
      <trkpt lat="44.31246" lon="0.85388">
        <ele>147.8</ele>
        <time>2020-10-17T16:42:56.000Z</time>
      </trkpt>
      <trkpt lat="44.31232" lon="0.85404">
        <ele>149.5</ele>
        <time>2020-10-17T16:42:40.000Z</time>
      </trkpt>
      <trkpt lat="44.3123" lon="0.85406">
        <ele>149.7</ele>
        <time>2020-10-17T16:42:31.000Z</time>
      </trkpt>
      <trkpt lat="44.31223" lon="0.85413">
        <ele>150.4</ele>
        <time>2020-10-17T16:42:23.000Z</time>
      </trkpt>
      <trkpt lat="44.31215" lon="0.85422">
        <ele>151.8</ele>
        <time>2020-10-17T16:42:14.000Z</time>
      </trkpt>
      <trkpt lat="44.3121" lon="0.8543">
        <ele>153.2</ele>
        <time>2020-10-17T16:42:06.000Z</time>
      </trkpt>
      <trkpt lat="44.31202" lon="0.85442">
        <ele>154.9</ele>
        <time>2020-10-17T16:41:58.000Z</time>
      </trkpt>
      <trkpt lat="44.31201" lon="0.85446">
        <ele>155.5</ele>
        <time>2020-10-17T16:41:49.000Z</time>
      </trkpt>
      <trkpt lat="44.31199" lon="0.85459">
        <ele>156.9</ele>
        <time>2020-10-17T16:41:41.000Z</time>
      </trkpt>
      <trkpt lat="44.31201" lon="0.85468">
        <ele>158.2</ele>
        <time>2020-10-17T16:41:32.000Z</time>
      </trkpt>
      <trkpt lat="44.31201" lon="0.8548">
        <ele>160.2</ele>
        <time>2020-10-17T16:41:24.000Z</time>
      </trkpt>
      <trkpt lat="44.31203" lon="0.85495">
        <ele>163.4</ele>
        <time>2020-10-17T16:41:16.000Z</time>
      </trkpt>
      <trkpt lat="44.312" lon="0.85511">
        <ele>166.7</ele>
        <time>2020-10-17T16:41:07.000Z</time>
      </trkpt>
      <trkpt lat="44.31194" lon="0.85521">
        <ele>168.1</ele>
        <time>2020-10-17T16:40:59.000Z</time>
      </trkpt>
      <trkpt lat="44.31185" lon="0.85529">
        <ele>168.7</ele>
        <time>2020-10-17T16:40:50.000Z</time>
      </trkpt>
      <trkpt lat="44.31177" lon="0.85538">
        <ele>169.2</ele>
        <time>2020-10-17T16:40:42.000Z</time>
      </trkpt>
      <trkpt lat="44.31174" lon="0.85549">
        <ele>170.9</ele>
        <time>2020-10-17T16:40:34.000Z</time>
      </trkpt>
      <trkpt lat="44.31172" lon="0.85561">
        <ele>172.8</ele>
        <time>2020-10-17T16:40:25.000Z</time>
      </trkpt>
      <trkpt lat="44.31164" lon="0.85582">
        <ele>175.4</ele>
        <time>2020-10-17T16:40:08.000Z</time>
      </trkpt>
      <trkpt lat="44.3116" lon="0.85593">
        <ele>176.4</ele>
        <time>2020-10-17T16:40:00.000Z</time>
      </trkpt>
      <trkpt lat="44.31154" lon="0.85606">
        <ele>177.9</ele>
        <time>2020-10-17T16:39:51.000Z</time>
      </trkpt>
      <trkpt lat="44.31152" lon="0.85619">
        <ele>179.3</ele>
        <time>2020-10-17T16:39:43.000Z</time>
      </trkpt>
      <trkpt lat="44.31148" lon="0.85633">
        <ele>180.3</ele>
        <time>2020-10-17T16:39:35.000Z</time>
      </trkpt>
      <trkpt lat="44.31147" lon="0.85644">
        <ele>181.6</ele>
        <time>2020-10-17T16:39:26.000Z</time>
      </trkpt>
      <trkpt lat="44.31144" lon="0.85661">
        <ele>184.4</ele>
        <time>2020-10-17T16:39:18.000Z</time>
      </trkpt>
      <trkpt lat="44.31146" lon="0.85675">
        <ele>187.5</ele>
        <time>2020-10-17T16:39:09.000Z</time>
      </trkpt>
      <trkpt lat="44.31144" lon="0.85685">
        <ele>189.2</ele>
        <time>2020-10-17T16:39:01.000Z</time>
      </trkpt>
      <trkpt lat="44.31147" lon="0.85707">
        <ele>194.7</ele>
        <time>2020-10-17T16:38:53.000Z</time>
      </trkpt>
      <trkpt lat="44.31145" lon="0.8573">
        <ele>198.9</ele>
        <time>2020-10-17T16:39:53.000Z</time>
      </trkpt>
      <trkpt lat="44.31135" lon="0.85766">
        <ele>203.4</ele>
        <time>2020-10-17T16:38:36.000Z</time>
      </trkpt>
      <trkpt lat="44.31117" lon="0.85781">
        <ele>202.6</ele>
        <time>2020-10-17T16:38:02.000Z</time>
      </trkpt>
      <trkpt lat="44.31111" lon="0.85794">
        <ele>203.8</ele>
        <time>2020-10-17T16:37:54.000Z</time>
      </trkpt>
      <trkpt lat="44.31101" lon="0.85807">
        <ele>204</ele>
        <time>2020-10-17T16:37:37.000Z</time>
      </trkpt>
      <trkpt lat="44.31091" lon="0.85819">
        <ele>204.1</ele>
        <time>2020-10-17T16:37:28.000Z</time>
      </trkpt>
      <trkpt lat="44.31072" lon="0.85834">
        <ele>203.6</ele>
        <time>2020-10-17T16:37:03.000Z</time>
      </trkpt>
      <trkpt lat="44.31063" lon="0.85846">
        <ele>204.5</ele>
        <time>2020-10-17T16:36:55.000Z</time>
      </trkpt>
      <trkpt lat="44.31054" lon="0.85857">
        <ele>205.6</ele>
        <time>2020-10-17T16:36:46.000Z</time>
      </trkpt>
      <trkpt lat="44.31041" lon="0.85864">
        <ele>203.9</ele>
        <time>2020-10-17T16:36:38.000Z</time>
      </trkpt>
      <trkpt lat="44.31035" lon="0.85873">
        <ele>203.9</ele>
        <time>2020-10-17T16:36:30.000Z</time>
      </trkpt>
      <trkpt lat="44.31027" lon="0.85884">
        <ele>204.8</ele>
        <time>2020-10-17T16:36:21.000Z</time>
      </trkpt>
      <trkpt lat="44.31021" lon="0.85897">
        <ele>205.2</ele>
        <time>2020-10-17T16:36:13.000Z</time>
      </trkpt>
      <trkpt lat="44.31011" lon="0.85909">
        <ele>204.7</ele>
        <time>2020-10-17T16:36:04.000Z</time>
      </trkpt>
      <trkpt lat="44.31001" lon="0.85921">
        <ele>204.7</ele>
        <time>2020-10-17T16:35:56.000Z</time>
      </trkpt>
      <trkpt lat="44.30992" lon="0.85935">
        <ele>204.4</ele>
        <time>2020-10-17T16:35:48.000Z</time>
      </trkpt>
      <trkpt lat="44.30983" lon="0.85948">
        <ele>204.1</ele>
        <time>2020-10-17T16:35:39.000Z</time>
      </trkpt>
      <trkpt lat="44.30975" lon="0.85956">
        <ele>203.9</ele>
        <time>2020-10-17T16:35:31.000Z</time>
      </trkpt>
      <trkpt lat="44.30965" lon="0.85968">
        <ele>204.9</ele>
        <time>2020-10-17T16:35:22.000Z</time>
      </trkpt>
      <trkpt lat="44.30946" lon="0.8598">
        <ele>204.3</ele>
        <time>2020-10-17T16:35:06.000Z</time>
      </trkpt>
      <trkpt lat="44.30935" lon="0.85985">
        <ele>203.3</ele>
        <time>2020-10-17T16:34:57.000Z</time>
      </trkpt>
      <trkpt lat="44.30925" lon="0.85989">
        <ele>202.6</ele>
        <time>2020-10-17T16:34:49.000Z</time>
      </trkpt>
      <trkpt lat="44.30917" lon="0.8599">
        <ele>201.6</ele>
        <time>2020-10-17T16:34:40.000Z</time>
      </trkpt>
      <trkpt lat="44.30908" lon="0.85988">
        <ele>201.3</ele>
        <time>2020-10-17T16:34:32.000Z</time>
      </trkpt>
      <trkpt lat="44.30897" lon="0.85983">
        <ele>200.7</ele>
        <time>2020-10-17T16:34:23.000Z</time>
      </trkpt>
      <trkpt lat="44.30888" lon="0.85976">
        <ele>200.4</ele>
        <time>2020-10-17T16:34:15.000Z</time>
      </trkpt>
      <trkpt lat="44.3088" lon="0.85966">
        <ele>200.4</ele>
        <time>2020-10-17T16:34:07.000Z</time>
      </trkpt>
      <trkpt lat="44.30872" lon="0.85951">
        <ele>200.6</ele>
        <time>2020-10-17T16:33:58.000Z</time>
      </trkpt>
      <trkpt lat="44.30868" lon="0.85941">
        <ele>200.9</ele>
        <time>2020-10-17T16:33:42.000Z</time>
      </trkpt>
      <trkpt lat="44.3086" lon="0.85928">
        <ele>202</ele>
        <time>2020-10-17T16:33:33.000Z</time>
      </trkpt>
      <trkpt lat="44.30854" lon="0.85919">
        <ele>202.2</ele>
        <time>2020-10-17T16:33:25.000Z</time>
      </trkpt>
      <trkpt lat="44.30845" lon="0.85905">
        <ele>202.8</ele>
        <time>2020-10-17T16:33:17.000Z</time>
      </trkpt>
      <trkpt lat="44.30835" lon="0.85897">
        <ele>204.7</ele>
        <time>2020-10-17T16:33:08.000Z</time>
      </trkpt>
      <trkpt lat="44.30827" lon="0.85893">
        <ele>205.5</ele>
        <time>2020-10-17T16:33:00.000Z</time>
      </trkpt>
      <trkpt lat="44.30815" lon="0.85887">
        <ele>206.2</ele>
        <time>2020-10-17T16:32:51.000Z</time>
      </trkpt>
      <trkpt lat="44.30803" lon="0.8588">
        <ele>206.8</ele>
        <time>2020-10-17T16:32:32.000Z</time>
      </trkpt>
      <trkpt lat="44.30794" lon="0.85873">
        <ele>206.8</ele>
        <time>2020-10-17T16:32:54.000Z</time>
      </trkpt>
      <trkpt lat="44.30778" lon="0.85864">
        <ele>207.1</ele>
        <time>2020-10-17T16:33:14.000Z</time>
      </trkpt>
      <trkpt lat="44.30759" lon="0.85855">
        <ele>208.2</ele>
        <time>2020-10-17T16:33:47.000Z</time>
      </trkpt>
      <trkpt lat="44.30739" lon="0.8584">
        <ele>209</ele>
        <time>2020-10-17T16:30:43.000Z</time>
      </trkpt>
      <trkpt lat="44.30723" lon="0.85825">
        <ele>209.4</ele>
        <time>2020-10-17T16:30:34.000Z</time>
      </trkpt>
      <trkpt lat="44.30712" lon="0.85817">
        <ele>209.4</ele>
        <time>2020-10-17T16:30:26.000Z</time>
      </trkpt>
      <trkpt lat="44.30699" lon="0.85809">
        <ele>209.8</ele>
        <time>2020-10-17T16:30:17.000Z</time>
      </trkpt>
      <trkpt lat="44.30686" lon="0.85803">
        <ele>210.6</ele>
        <time>2020-10-17T16:30:09.000Z</time>
      </trkpt>
      <trkpt lat="44.30675" lon="0.85795">
        <ele>211.4</ele>
        <time>2020-10-17T16:30:01.000Z</time>
      </trkpt>
      <trkpt lat="44.30655" lon="0.85785">
        <ele>212.4</ele>
        <time>2020-10-17T16:29:44.000Z</time>
      </trkpt>
      <trkpt lat="44.30647" lon="0.85778">
        <ele>212.7</ele>
        <time>2020-10-17T16:29:35.000Z</time>
      </trkpt>
      <trkpt lat="44.30639" lon="0.85773">
        <ele>213</ele>
        <time>2020-10-17T16:29:27.000Z</time>
      </trkpt>
      <trkpt lat="44.30635" lon="0.85759">
        <ele>212.8</ele>
        <time>2020-10-17T16:29:19.000Z</time>
      </trkpt>
      <trkpt lat="44.3063" lon="0.85744">
        <ele>212.7</ele>
        <time>2020-10-17T16:29:10.000Z</time>
      </trkpt>
      <trkpt lat="44.30625" lon="0.85731">
        <ele>212.5</ele>
        <time>2020-10-17T16:29:02.000Z</time>
      </trkpt>
      <trkpt lat="44.30622" lon="0.85716">
        <ele>212.4</ele>
        <time>2020-10-17T16:28:53.000Z</time>
      </trkpt>
      <trkpt lat="44.30617" lon="0.85702">
        <ele>212.2</ele>
        <time>2020-10-17T16:28:45.000Z</time>
      </trkpt>
      <trkpt lat="44.30612" lon="0.85688">
        <ele>211.8</ele>
        <time>2020-10-17T16:28:36.000Z</time>
      </trkpt>
      <trkpt lat="44.30608" lon="0.85676">
        <ele>211.2</ele>
        <time>2020-10-17T16:28:28.000Z</time>
      </trkpt>
      <trkpt lat="44.30603" lon="0.85664">
        <ele>210.7</ele>
        <time>2020-10-17T16:28:20.000Z</time>
      </trkpt>
      <trkpt lat="44.30599" lon="0.85651">
        <ele>210.5</ele>
        <time>2020-10-17T16:28:11.000Z</time>
      </trkpt>
      <trkpt lat="44.30589" lon="0.85653">
        <ele>210.2</ele>
        <time>2020-10-17T16:28:03.000Z</time>
        <extensions>
          <visugpx:TrkExtension xmlns:visugpx="https://www.visugpx.com/editgpx/">
            <visugpx:node>1</visugpx:node>
            </visugpx:TrkExtension>
        </extensions>
      </trkpt>
    </trkseg>
  </trk>
</gpx>